<?xml version="1.0" encoding="UTF-8" standalone="no" ?>
<gpx xmlns="http://www.topografix.com/GPX/1/1" xmlns:xsi="http://www.w3.org/2001/XMLSchema-instance" xsi:schemaLocation="http://www.topografix.com/GPX/1/1 http://www.topografix.com/GPX/1/1/gpx.xsd" version="1.1" creator="VisuGPX - https://www.visugpx.com">
  <metadata>
    <name>morre / busy</name>
    <desc><![CDATA[running morre /  busy]]></desc>
  </metadata>
  <trk>
    <name><![CDATA[morre / busy_1]]></name>
    <trkseg>
      <trkpt lat="47.21763" lon="6.06138">
        <ele>421</ele>
        <time>2014-09-16T16:56:24Z</time>
      </trkpt>
      <trkpt lat="47.21753" lon="6.06138">
        <ele>419</ele>
        <time>2014-09-16T16:56:31Z</time>
      </trkpt>
      <trkpt lat="47.21745" lon="6.06132">
        <ele>421.9</ele>
        <time>2014-09-16T16:56:37Z</time>
      </trkpt>
      <trkpt lat="47.21736" lon="6.06124">
        <ele>424.2</ele>
        <time>2014-09-16T16:56:46Z</time>
      </trkpt>
      <trkpt lat="47.21729" lon="6.06116">
        <ele>426.1</ele>
        <time>2014-09-16T16:56:48Z</time>
      </trkpt>
      <trkpt lat="47.21722" lon="6.06107">
        <ele>427.5</ele>
        <time>2014-09-16T16:56:53Z</time>
      </trkpt>
      <trkpt lat="47.21715" lon="6.06101">
        <ele>429</ele>
        <time>2014-09-16T16:56:58Z</time>
      </trkpt>
      <trkpt lat="47.21707" lon="6.06094">
        <ele>430.5</ele>
        <time>2014-09-16T16:57:03Z</time>
      </trkpt>
      <trkpt lat="47.217" lon="6.06087">
        <ele>431.5</ele>
        <time>2014-09-16T16:57:07Z</time>
      </trkpt>
      <trkpt lat="47.21691" lon="6.06078">
        <ele>432.6</ele>
        <time>2014-09-16T16:57:13Z</time>
      </trkpt>
      <trkpt lat="47.21684" lon="6.0607">
        <ele>433.7</ele>
        <time>2014-09-16T16:57:16Z</time>
      </trkpt>
      <trkpt lat="47.21677" lon="6.06063">
        <ele>434.8</ele>
        <time>2014-09-16T16:57:22Z</time>
      </trkpt>
      <trkpt lat="47.21669" lon="6.06057">
        <ele>438.8</ele>
        <time>2014-09-16T16:57:27Z</time>
      </trkpt>
      <trkpt lat="47.21663" lon="6.0605">
        <ele>439.9</ele>
        <time>2014-09-16T16:57:32Z</time>
      </trkpt>
      <trkpt lat="47.21655" lon="6.06044">
        <ele>441</ele>
        <time>2014-09-16T16:57:37Z</time>
      </trkpt>
      <trkpt lat="47.21646" lon="6.06036">
        <ele>442.1</ele>
        <time>2014-09-16T16:57:43Z</time>
      </trkpt>
      <trkpt lat="47.2164" lon="6.06029">
        <ele>443.2</ele>
        <time>2014-09-16T16:57:47Z</time>
      </trkpt>
      <trkpt lat="47.2163" lon="6.06013">
        <ele>442.9</ele>
        <time>2014-09-16T16:57:56Z</time>
      </trkpt>
      <trkpt lat="47.21623" lon="6.06003">
        <ele>442.6</ele>
        <time>2014-09-16T16:57:58Z</time>
      </trkpt>
      <trkpt lat="47.21616" lon="6.05995">
        <ele>444.2</ele>
        <time>2014-09-16T16:58:02Z</time>
      </trkpt>
      <trkpt lat="47.2161" lon="6.05986">
        <ele>445.7</ele>
        <time>2014-09-16T16:58:08Z</time>
      </trkpt>
      <trkpt lat="47.21604" lon="6.05977">
        <ele>447.3</ele>
        <time>2014-09-16T16:58:14Z</time>
      </trkpt>
      <trkpt lat="47.21597" lon="6.05968">
        <ele>448.8</ele>
        <time>2014-09-16T16:58:18Z</time>
      </trkpt>
      <trkpt lat="47.21589" lon="6.05962">
        <ele>447.5</ele>
        <time>2014-09-16T16:58:22Z</time>
      </trkpt>
      <trkpt lat="47.21581" lon="6.05953">
        <ele>446.1</ele>
        <time>2014-09-16T16:58:26Z</time>
      </trkpt>
      <trkpt lat="47.21575" lon="6.05944">
        <ele>444.4</ele>
        <time>2014-09-16T16:58:30Z</time>
      </trkpt>
      <trkpt lat="47.21567" lon="6.05934">
        <ele>442.6</ele>
        <time>2014-09-16T16:58:36Z</time>
      </trkpt>
      <trkpt lat="47.21563" lon="6.05923">
        <ele>440.9</ele>
        <time>2014-09-16T16:58:41Z</time>
      </trkpt>
      <trkpt lat="47.21559" lon="6.05911">
        <ele>440.5</ele>
        <time>2014-09-16T16:58:45Z</time>
      </trkpt>
      <trkpt lat="47.21555" lon="6.05897">
        <ele>441.7</ele>
        <time>2014-09-16T16:58:49Z</time>
      </trkpt>
      <trkpt lat="47.21553" lon="6.05886">
        <ele>442.9</ele>
        <time>2014-09-16T16:58:53Z</time>
      </trkpt>
      <trkpt lat="47.2155" lon="6.05872">
        <ele>443.7</ele>
        <time>2014-09-16T16:59:00Z</time>
      </trkpt>
      <trkpt lat="47.21546" lon="6.05858">
        <ele>444.5</ele>
        <time>2014-09-16T16:59:06Z</time>
      </trkpt>
      <trkpt lat="47.21544" lon="6.05842">
        <ele>445.4</ele>
        <time>2014-09-16T16:59:12Z</time>
      </trkpt>
      <trkpt lat="47.21541" lon="6.05829">
        <ele>446.2</ele>
        <time>2014-09-16T16:59:17Z</time>
      </trkpt>
      <trkpt lat="47.21538" lon="6.05812">
        <ele>447</ele>
        <time>2014-09-16T16:59:24Z</time>
      </trkpt>
      <trkpt lat="47.21537" lon="6.058">
        <ele>448.2</ele>
        <time>2014-09-16T16:59:30Z</time>
      </trkpt>
      <trkpt lat="47.21534" lon="6.05788">
        <ele>449.4</ele>
        <time>2014-09-16T16:59:36Z</time>
      </trkpt>
      <trkpt lat="47.21532" lon="6.05775">
        <ele>450.5</ele>
        <time>2014-09-16T16:59:42Z</time>
      </trkpt>
      <trkpt lat="47.2153" lon="6.05762">
        <ele>451.5</ele>
        <time>2014-09-16T16:59:47Z</time>
      </trkpt>
      <trkpt lat="47.21528" lon="6.0575">
        <ele>451</ele>
        <time>2014-09-16T16:59:52Z</time>
      </trkpt>
      <trkpt lat="47.21526" lon="6.05737">
        <ele>450.5</ele>
        <time>2014-09-16T16:59:56Z</time>
      </trkpt>
      <trkpt lat="47.21524" lon="6.05724">
        <ele>450.3</ele>
        <time>2014-09-16T17:00:01Z</time>
      </trkpt>
      <trkpt lat="47.21521" lon="6.05711">
        <ele>450.1</ele>
        <time>2014-09-16T17:00:09Z</time>
      </trkpt>
      <trkpt lat="47.21518" lon="6.05699">
        <ele>449.9</ele>
        <time>2014-09-16T17:00:11Z</time>
      </trkpt>
      <trkpt lat="47.21508" lon="6.05699">
        <ele>449.7</ele>
        <time>2014-09-16T17:00:18Z</time>
      </trkpt>
      <trkpt lat="47.21499" lon="6.05697">
        <ele>449.4</ele>
        <time>2014-09-16T17:00:23Z</time>
      </trkpt>
      <trkpt lat="47.21491" lon="6.05693">
        <ele>449</ele>
        <time>2014-09-16T17:00:29Z</time>
      </trkpt>
      <trkpt lat="47.21481" lon="6.05689">
        <ele>448.6</ele>
        <time>2014-09-16T17:00:34Z</time>
      </trkpt>
      <trkpt lat="47.21471" lon="6.05686">
        <ele>448.3</ele>
        <time>2014-09-16T17:00:38Z</time>
      </trkpt>
      <trkpt lat="47.21461" lon="6.05681">
        <ele>448.1</ele>
        <time>2014-09-16T17:00:43Z</time>
      </trkpt>
      <trkpt lat="47.21452" lon="6.05678">
        <ele>447.9</ele>
        <time>2014-09-16T17:00:48Z</time>
      </trkpt>
      <trkpt lat="47.2144" lon="6.05674">
        <ele>447.7</ele>
        <time>2014-09-16T17:00:53Z</time>
      </trkpt>
      <trkpt lat="47.21429" lon="6.05671">
        <ele>447.5</ele>
        <time>2014-09-16T17:00:56Z</time>
      </trkpt>
      <trkpt lat="47.21419" lon="6.05669">
        <ele>448.5</ele>
        <time>2014-09-16T17:01:00Z</time>
      </trkpt>
      <trkpt lat="47.2141" lon="6.05665">
        <ele>449.4</ele>
        <time>2014-09-16T17:01:04Z</time>
      </trkpt>
      <trkpt lat="47.21401" lon="6.05662">
        <ele>450.3</ele>
        <time>2014-09-16T17:01:09Z</time>
      </trkpt>
      <trkpt lat="47.21393" lon="6.05657">
        <ele>451.4</ele>
        <time>2014-09-16T17:01:12Z</time>
      </trkpt>
      <trkpt lat="47.21384" lon="6.05654">
        <ele>452.5</ele>
        <time>2014-09-16T17:01:17Z</time>
      </trkpt>
      <trkpt lat="47.21376" lon="6.05652">
        <ele>452.5</ele>
        <time>2014-09-16T17:01:20Z</time>
      </trkpt>
      <trkpt lat="47.21367" lon="6.05647">
        <ele>452.6</ele>
        <time>2014-09-16T17:01:24Z</time>
      </trkpt>
      <trkpt lat="47.21359" lon="6.05643">
        <ele>452.7</ele>
        <time>2014-09-16T17:01:28Z</time>
      </trkpt>
      <trkpt lat="47.21351" lon="6.05634">
        <ele>452.8</ele>
        <time>2014-09-16T17:01:33Z</time>
      </trkpt>
      <trkpt lat="47.21344" lon="6.05628">
        <ele>452.9</ele>
        <time>2014-09-16T17:01:38Z</time>
      </trkpt>
      <trkpt lat="47.21334" lon="6.0562">
        <ele>454.6</ele>
        <time>2014-09-16T17:01:42Z</time>
      </trkpt>
      <trkpt lat="47.21324" lon="6.05612">
        <ele>455.3</ele>
        <time>2014-09-16T17:01:46Z</time>
      </trkpt>
      <trkpt lat="47.21317" lon="6.05602">
        <ele>455.9</ele>
        <time>2014-09-16T17:01:49Z</time>
      </trkpt>
      <trkpt lat="47.21308" lon="6.05591">
        <ele>456.5</ele>
        <time>2014-09-16T17:01:55Z</time>
      </trkpt>
      <trkpt lat="47.21301" lon="6.05585">
        <ele>457.2</ele>
        <time>2014-09-16T17:01:58Z</time>
      </trkpt>
      <trkpt lat="47.21294" lon="6.05578">
        <ele>457.1</ele>
        <time>2014-09-16T17:02:03Z</time>
      </trkpt>
      <trkpt lat="47.21283" lon="6.05567">
        <ele>458</ele>
        <time>2014-09-16T17:02:09Z</time>
      </trkpt>
      <trkpt lat="47.21276" lon="6.05562">
        <ele>458.9</ele>
        <time>2014-09-16T17:02:13Z</time>
      </trkpt>
      <trkpt lat="47.21267" lon="6.05554">
        <ele>459.8</ele>
        <time>2014-09-16T17:02:19Z</time>
      </trkpt>
      <trkpt lat="47.21261" lon="6.05546">
        <ele>460.7</ele>
        <time>2014-09-16T17:02:22Z</time>
      </trkpt>
      <trkpt lat="47.21254" lon="6.05535">
        <ele>461.6</ele>
        <time>2014-09-16T17:02:29Z</time>
      </trkpt>
      <trkpt lat="47.21248" lon="6.05527">
        <ele>460.9</ele>
        <time>2014-09-16T17:02:32Z</time>
      </trkpt>
      <trkpt lat="47.2124" lon="6.05522">
        <ele>460.3</ele>
        <time>2014-09-16T17:02:37Z</time>
      </trkpt>
      <trkpt lat="47.21232" lon="6.05512">
        <ele>459.6</ele>
        <time>2014-09-16T17:02:43Z</time>
      </trkpt>
      <trkpt lat="47.21227" lon="6.05503">
        <ele>459.5</ele>
        <time>2014-09-16T17:02:48Z</time>
      </trkpt>
      <trkpt lat="47.2122" lon="6.05495">
        <ele>459.3</ele>
        <time>2014-09-16T17:02:54Z</time>
      </trkpt>
      <trkpt lat="47.21213" lon="6.05487">
        <ele>459.8</ele>
        <time>2014-09-16T17:02:58Z</time>
      </trkpt>
      <trkpt lat="47.21208" lon="6.05476">
        <ele>459.9</ele>
        <time>2014-09-16T17:03:04Z</time>
      </trkpt>
      <trkpt lat="47.21201" lon="6.05467">
        <ele>460</ele>
        <time>2014-09-16T17:03:08Z</time>
      </trkpt>
      <trkpt lat="47.2119" lon="6.05458">
        <ele>460.5</ele>
        <time>2014-09-16T17:03:14Z</time>
      </trkpt>
      <trkpt lat="47.21182" lon="6.05457">
        <ele>461.1</ele>
        <time>2014-09-16T17:03:17Z</time>
      </trkpt>
      <trkpt lat="47.21172" lon="6.0546">
        <ele>461.6</ele>
        <time>2014-09-16T17:03:22Z</time>
      </trkpt>
      <trkpt lat="47.21163" lon="6.05468">
        <ele>462.2</ele>
        <time>2014-09-16T17:03:28Z</time>
      </trkpt>
      <trkpt lat="47.21155" lon="6.05469">
        <ele>462.6</ele>
        <time>2014-09-16T17:03:35Z</time>
      </trkpt>
      <trkpt lat="47.21151" lon="6.05456">
        <ele>463.1</ele>
        <time>2014-09-16T17:03:42Z</time>
      </trkpt>
      <trkpt lat="47.21149" lon="6.05444">
        <ele>462.5</ele>
        <time>2014-09-16T17:03:47Z</time>
      </trkpt>
      <trkpt lat="47.21148" lon="6.05432">
        <ele>462.7</ele>
        <time>2014-09-16T17:03:52Z</time>
      </trkpt>
      <trkpt lat="47.21144" lon="6.05421">
        <ele>462.9</ele>
        <time>2014-09-16T17:03:58Z</time>
      </trkpt>
      <trkpt lat="47.21138" lon="6.05407">
        <ele>463.5</ele>
        <time>2014-09-16T17:04:04Z</time>
      </trkpt>
      <trkpt lat="47.21134" lon="6.05394">
        <ele>464.2</ele>
        <time>2014-09-16T17:04:08Z</time>
      </trkpt>
      <trkpt lat="47.2113" lon="6.05383">
        <ele>464.4</ele>
        <time>2014-09-16T17:04:14Z</time>
      </trkpt>
      <trkpt lat="47.21123" lon="6.05369">
        <ele>464.5</ele>
        <time>2014-09-16T17:04:21Z</time>
      </trkpt>
      <trkpt lat="47.21117" lon="6.05359">
        <ele>464.7</ele>
        <time>2014-09-16T17:04:27Z</time>
      </trkpt>
      <trkpt lat="47.21109" lon="6.05349">
        <ele>464.9</ele>
        <time>2014-09-16T17:04:31Z</time>
      </trkpt>
      <trkpt lat="47.21101" lon="6.0534">
        <ele>465.2</ele>
        <time>2014-09-16T17:04:35Z</time>
      </trkpt>
      <trkpt lat="47.21095" lon="6.0533">
        <ele>465.5</ele>
        <time>2014-09-16T17:04:40Z</time>
      </trkpt>
      <trkpt lat="47.21088" lon="6.05321">
        <ele>466.3</ele>
        <time>2014-09-16T17:04:45Z</time>
      </trkpt>
      <trkpt lat="47.2108" lon="6.05313">
        <ele>466.4</ele>
        <time>2014-09-16T17:04:49Z</time>
      </trkpt>
      <trkpt lat="47.21076" lon="6.05303">
        <ele>466.5</ele>
        <time>2014-09-16T17:04:54Z</time>
      </trkpt>
      <trkpt lat="47.21071" lon="6.05293">
        <ele>466.5</ele>
        <time>2014-09-16T17:04:59Z</time>
      </trkpt>
      <trkpt lat="47.21066" lon="6.05283">
        <ele>466.6</ele>
        <time>2014-09-16T17:05:04Z</time>
      </trkpt>
      <trkpt lat="47.21061" lon="6.05273">
        <ele>466.7</ele>
        <time>2014-09-16T17:05:07Z</time>
      </trkpt>
      <trkpt lat="47.21055" lon="6.05262">
        <ele>466.8</ele>
        <time>2014-09-16T17:05:09Z</time>
      </trkpt>
      <trkpt lat="47.21052" lon="6.05251">
        <ele>466.9</ele>
        <time>2014-09-16T17:05:12Z</time>
      </trkpt>
      <trkpt lat="47.21048" lon="6.05238">
        <ele>467</ele>
        <time>2014-09-16T17:05:18Z</time>
      </trkpt>
      <trkpt lat="47.21045" lon="6.05227">
        <ele>467</ele>
        <time>2014-09-16T17:05:20Z</time>
      </trkpt>
      <trkpt lat="47.2104" lon="6.05213">
        <ele>467</ele>
        <time>2014-09-16T17:05:23Z</time>
      </trkpt>
      <trkpt lat="47.21035" lon="6.05203">
        <ele>467</ele>
        <time>2014-09-16T17:05:26Z</time>
      </trkpt>
      <trkpt lat="47.21031" lon="6.05192">
        <ele>467.2</ele>
        <time>2014-09-16T17:05:29Z</time>
      </trkpt>
      <trkpt lat="47.21026" lon="6.0518">
        <ele>467.4</ele>
        <time>2014-09-16T17:05:33Z</time>
      </trkpt>
      <trkpt lat="47.21022" lon="6.0517">
        <ele>467.5</ele>
        <time>2014-09-16T17:05:36Z</time>
      </trkpt>
      <trkpt lat="47.21017" lon="6.05158">
        <ele>467.7</ele>
        <time>2014-09-16T17:05:40Z</time>
      </trkpt>
      <trkpt lat="47.21013" lon="6.05144">
        <ele>467.9</ele>
        <time>2014-09-16T17:05:43Z</time>
      </trkpt>
      <trkpt lat="47.21008" lon="6.05133">
        <ele>468.1</ele>
        <time>2014-09-16T17:05:48Z</time>
      </trkpt>
      <trkpt lat="47.21003" lon="6.05122">
        <ele>467.7</ele>
        <time>2014-09-16T17:05:53Z</time>
      </trkpt>
      <trkpt lat="47.20998" lon="6.05112">
        <ele>467.4</ele>
        <time>2014-09-16T17:05:58Z</time>
      </trkpt>
      <trkpt lat="47.20991" lon="6.05101">
        <ele>467.7</ele>
        <time>2014-09-16T17:06:03Z</time>
      </trkpt>
      <trkpt lat="47.20973" lon="6.05074">
        <ele>468.1</ele>
        <time>2014-09-16T17:06:14Z</time>
      </trkpt>
      <trkpt lat="47.20968" lon="6.05062">
        <ele>468.5</ele>
        <time>2014-09-16T17:06:18Z</time>
      </trkpt>
      <trkpt lat="47.20964" lon="6.05049">
        <ele>468.6</ele>
        <time>2014-09-16T17:06:23Z</time>
      </trkpt>
      <trkpt lat="47.2096" lon="6.05037">
        <ele>468.8</ele>
        <time>2014-09-16T17:06:29Z</time>
      </trkpt>
      <trkpt lat="47.20955" lon="6.05026">
        <ele>469</ele>
        <time>2014-09-16T17:06:36Z</time>
      </trkpt>
      <trkpt lat="47.2095" lon="6.05014">
        <ele>469.5</ele>
        <time>2014-09-16T17:06:41Z</time>
      </trkpt>
      <trkpt lat="47.20946" lon="6.05001">
        <ele>470.1</ele>
        <time>2014-09-16T17:06:45Z</time>
      </trkpt>
      <trkpt lat="47.20942" lon="6.04991">
        <ele>470.6</ele>
        <time>2014-09-16T17:06:49Z</time>
      </trkpt>
      <trkpt lat="47.20935" lon="6.04979">
        <ele>471.7</ele>
        <time>2014-09-16T17:06:55Z</time>
      </trkpt>
      <trkpt lat="47.2093" lon="6.04971">
        <ele>472.8</ele>
        <time>2014-09-16T17:06:58Z</time>
      </trkpt>
      <trkpt lat="47.20925" lon="6.0496">
        <ele>473.2</ele>
        <time>2014-09-16T17:07:01Z</time>
      </trkpt>
      <trkpt lat="47.20922" lon="6.04946">
        <ele>473.1</ele>
        <time>2014-09-16T17:07:07Z</time>
      </trkpt>
      <trkpt lat="47.20918" lon="6.04934">
        <ele>473</ele>
        <time>2014-09-16T17:07:11Z</time>
      </trkpt>
      <trkpt lat="47.20911" lon="6.04924">
        <ele>472.9</ele>
        <time>2014-09-16T17:07:18Z</time>
      </trkpt>
      <trkpt lat="47.20905" lon="6.04913">
        <ele>472.8</ele>
        <time>2014-09-16T17:07:22Z</time>
      </trkpt>
      <trkpt lat="47.20902" lon="6.049">
        <ele>472.7</ele>
        <time>2014-09-16T17:07:27Z</time>
      </trkpt>
      <trkpt lat="47.20899" lon="6.04887">
        <ele>472.5</ele>
        <time>2014-09-16T17:07:33Z</time>
      </trkpt>
      <trkpt lat="47.20894" lon="6.04876">
        <ele>472.4</ele>
        <time>2014-09-16T17:07:36Z</time>
      </trkpt>
      <trkpt lat="47.2089" lon="6.04865">
        <ele>472.2</ele>
        <time>2014-09-16T17:07:40Z</time>
      </trkpt>
      <trkpt lat="47.20885" lon="6.04851">
        <ele>472.6</ele>
        <time>2014-09-16T17:07:46Z</time>
      </trkpt>
      <trkpt lat="47.2088" lon="6.0484">
        <ele>473.1</ele>
        <time>2014-09-16T17:07:50Z</time>
      </trkpt>
      <trkpt lat="47.20876" lon="6.04829">
        <ele>473.5</ele>
        <time>2014-09-16T17:07:54Z</time>
      </trkpt>
      <trkpt lat="47.2087" lon="6.04819">
        <ele>474.5</ele>
        <time>2014-09-16T17:07:59Z</time>
      </trkpt>
      <trkpt lat="47.20866" lon="6.04809">
        <ele>475.4</ele>
        <time>2014-09-16T17:08:02Z</time>
      </trkpt>
      <trkpt lat="47.2086" lon="6.048">
        <ele>476.3</ele>
        <time>2014-09-16T17:08:06Z</time>
      </trkpt>
      <trkpt lat="47.20854" lon="6.04787">
        <ele>477.2</ele>
        <time>2014-09-16T17:08:13Z</time>
      </trkpt>
      <trkpt lat="47.20849" lon="6.04775">
        <ele>478.1</ele>
        <time>2014-09-16T17:08:17Z</time>
      </trkpt>
      <trkpt lat="47.20845" lon="6.04763">
        <ele>478.4</ele>
        <time>2014-09-16T17:08:21Z</time>
      </trkpt>
      <trkpt lat="47.20842" lon="6.04751">
        <ele>478.6</ele>
        <time>2014-09-16T17:08:27Z</time>
      </trkpt>
      <trkpt lat="47.20838" lon="6.04738">
        <ele>478.9</ele>
        <time>2014-09-16T17:08:31Z</time>
      </trkpt>
      <trkpt lat="47.20836" lon="6.04726">
        <ele>478.5</ele>
        <time>2014-09-16T17:08:34Z</time>
      </trkpt>
      <trkpt lat="47.20833" lon="6.04715">
        <ele>478.2</ele>
        <time>2014-09-16T17:08:38Z</time>
      </trkpt>
      <trkpt lat="47.2083" lon="6.04704">
        <ele>477.8</ele>
        <time>2014-09-16T17:08:41Z</time>
      </trkpt>
      <trkpt lat="47.20824" lon="6.04693">
        <ele>477.5</ele>
        <time>2014-09-16T17:08:46Z</time>
      </trkpt>
      <trkpt lat="47.20821" lon="6.04681">
        <ele>476.5</ele>
        <time>2014-09-16T17:08:50Z</time>
      </trkpt>
      <trkpt lat="47.20816" lon="6.04669">
        <ele>475.5</ele>
        <time>2014-09-16T17:08:55Z</time>
      </trkpt>
      <trkpt lat="47.20811" lon="6.04658">
        <ele>474.8</ele>
        <time>2014-09-16T17:08:59Z</time>
      </trkpt>
      <trkpt lat="47.20806" lon="6.04646">
        <ele>474.2</ele>
        <time>2014-09-16T17:09:02Z</time>
      </trkpt>
      <trkpt lat="47.20803" lon="6.04631">
        <ele>473.9</ele>
        <time>2014-09-16T17:09:05Z</time>
      </trkpt>
      <trkpt lat="47.20801" lon="6.04617">
        <ele>473.6</ele>
        <time>2014-09-16T17:09:09Z</time>
      </trkpt>
      <trkpt lat="47.20797" lon="6.046">
        <ele>473.7</ele>
        <time>2014-09-16T17:09:12Z</time>
      </trkpt>
      <trkpt lat="47.20795" lon="6.04586">
        <ele>473.8</ele>
        <time>2014-09-16T17:09:14Z</time>
      </trkpt>
      <trkpt lat="47.20792" lon="6.04572">
        <ele>473.9</ele>
        <time>2014-09-16T17:09:17Z</time>
      </trkpt>
      <trkpt lat="47.20788" lon="6.04558">
        <ele>474</ele>
        <time>2014-09-16T17:09:22Z</time>
      </trkpt>
      <trkpt lat="47.20784" lon="6.04546">
        <ele>474.1</ele>
        <time>2014-09-16T17:09:27Z</time>
      </trkpt>
      <trkpt lat="47.20778" lon="6.04535">
        <ele>474.8</ele>
        <time>2014-09-16T17:09:33Z</time>
      </trkpt>
      <trkpt lat="47.20774" lon="6.04524">
        <ele>475.3</ele>
        <time>2014-09-16T17:09:38Z</time>
      </trkpt>
      <trkpt lat="47.2077" lon="6.04513">
        <ele>475.4</ele>
        <time>2014-09-16T17:09:43Z</time>
      </trkpt>
      <trkpt lat="47.20767" lon="6.04501">
        <ele>475.5</ele>
        <time>2014-09-16T17:09:48Z</time>
      </trkpt>
      <trkpt lat="47.20762" lon="6.04488">
        <ele>475.5</ele>
        <time>2014-09-16T17:09:53Z</time>
      </trkpt>
      <trkpt lat="47.20759" lon="6.04477">
        <ele>475.6</ele>
        <time>2014-09-16T17:09:57Z</time>
      </trkpt>
      <trkpt lat="47.20753" lon="6.04458">
        <ele>475.4</ele>
        <time>2014-09-16T17:10:05Z</time>
      </trkpt>
      <trkpt lat="47.20749" lon="6.04444">
        <ele>474.7</ele>
        <time>2014-09-16T17:10:08Z</time>
      </trkpt>
      <trkpt lat="47.20744" lon="6.04434">
        <ele>474.1</ele>
        <time>2014-09-16T17:10:12Z</time>
      </trkpt>
      <trkpt lat="47.20741" lon="6.04421">
        <ele>473.5</ele>
        <time>2014-09-16T17:10:16Z</time>
      </trkpt>
      <trkpt lat="47.20737" lon="6.04406">
        <ele>472.6</ele>
        <time>2014-09-16T17:10:21Z</time>
      </trkpt>
      <trkpt lat="47.20732" lon="6.04392">
        <ele>471.8</ele>
        <time>2014-09-16T17:10:23Z</time>
      </trkpt>
      <trkpt lat="47.20726" lon="6.04374">
        <ele>471.3</ele>
        <time>2014-09-16T17:10:25Z</time>
      </trkpt>
      <trkpt lat="47.20721" lon="6.04358">
        <ele>470.7</ele>
        <time>2014-09-16T17:10:29Z</time>
      </trkpt>
      <trkpt lat="47.20716" lon="6.04346">
        <ele>470.9</ele>
        <time>2014-09-16T17:10:32Z</time>
      </trkpt>
      <trkpt lat="47.20711" lon="6.04335">
        <ele>471.1</ele>
        <time>2014-09-16T17:10:40Z</time>
      </trkpt>
      <trkpt lat="47.20708" lon="6.04323">
        <ele>471.3</ele>
        <time>2014-09-16T17:10:45Z</time>
      </trkpt>
      <trkpt lat="47.20705" lon="6.04312">
        <ele>471.5</ele>
        <time>2014-09-16T17:10:51Z</time>
      </trkpt>
      <trkpt lat="47.20702" lon="6.043">
        <ele>472</ele>
        <time>2014-09-16T17:10:58Z</time>
      </trkpt>
      <trkpt lat="47.20698" lon="6.04289">
        <ele>472.5</ele>
        <time>2014-09-16T17:11:05Z</time>
      </trkpt>
      <trkpt lat="47.20693" lon="6.04279">
        <ele>473.1</ele>
        <time>2014-09-16T17:11:13Z</time>
      </trkpt>
      <trkpt lat="47.20688" lon="6.0427">
        <ele>474.3</ele>
        <time>2014-09-16T17:11:20Z</time>
      </trkpt>
      <trkpt lat="47.20685" lon="6.04257">
        <ele>475.5</ele>
        <time>2014-09-16T17:11:24Z</time>
      </trkpt>
      <trkpt lat="47.2068" lon="6.04245">
        <ele>476.6</ele>
        <time>2014-09-16T17:11:29Z</time>
      </trkpt>
      <trkpt lat="47.20677" lon="6.04233">
        <ele>477.8</ele>
        <time>2014-09-16T17:11:34Z</time>
      </trkpt>
      <trkpt lat="47.20675" lon="6.0422">
        <ele>478.3</ele>
        <time>2014-09-16T17:11:38Z</time>
      </trkpt>
      <trkpt lat="47.20673" lon="6.04204">
        <ele>479.2</ele>
        <time>2014-09-16T17:11:42Z</time>
      </trkpt>
      <trkpt lat="47.20674" lon="6.04192">
        <ele>480.1</ele>
        <time>2014-09-16T17:11:44Z</time>
      </trkpt>
      <trkpt lat="47.20671" lon="6.04177">
        <ele>481</ele>
        <time>2014-09-16T17:11:49Z</time>
      </trkpt>
      <trkpt lat="47.20667" lon="6.04163">
        <ele>481.9</ele>
        <time>2014-09-16T17:11:52Z</time>
      </trkpt>
      <trkpt lat="47.20661" lon="6.0414">
        <ele>481.3</ele>
        <time>2014-09-16T17:11:55Z</time>
      </trkpt>
      <trkpt lat="47.20657" lon="6.04129">
        <ele>480.6</ele>
        <time>2014-09-16T17:11:56Z</time>
      </trkpt>
      <trkpt lat="47.20649" lon="6.0411">
        <ele>480.6</ele>
        <time>2014-09-16T17:12:00Z</time>
      </trkpt>
      <trkpt lat="47.20641" lon="6.04093">
        <ele>480.6</ele>
        <time>2014-09-16T17:12:04Z</time>
      </trkpt>
      <trkpt lat="47.20637" lon="6.04079">
        <ele>480.6</ele>
        <time>2014-09-16T17:12:07Z</time>
      </trkpt>
      <trkpt lat="47.2063" lon="6.04066">
        <ele>480.6</ele>
        <time>2014-09-16T17:12:09Z</time>
      </trkpt>
      <trkpt lat="47.20625" lon="6.04056">
        <ele>480.6</ele>
        <time>2014-09-16T17:12:12Z</time>
      </trkpt>
      <trkpt lat="47.20618" lon="6.04042">
        <ele>480.2</ele>
        <time>2014-09-16T17:12:15Z</time>
      </trkpt>
      <trkpt lat="47.20614" lon="6.04031">
        <ele>479.7</ele>
        <time>2014-09-16T17:12:16Z</time>
      </trkpt>
      <trkpt lat="47.20609" lon="6.0402">
        <ele>480.3</ele>
        <time>2014-09-16T17:12:20Z</time>
      </trkpt>
      <trkpt lat="47.20605" lon="6.0401">
        <ele>480.8</ele>
        <time>2014-09-16T17:12:24Z</time>
      </trkpt>
      <trkpt lat="47.206" lon="6.03999">
        <ele>482.9</ele>
        <time>2014-09-16T17:12:28Z</time>
      </trkpt>
      <trkpt lat="47.20596" lon="6.03987">
        <ele>485</ele>
        <time>2014-09-16T17:12:32Z</time>
      </trkpt>
      <trkpt lat="47.20591" lon="6.0397">
        <ele>486</ele>
        <time>2014-09-16T17:12:38Z</time>
      </trkpt>
      <trkpt lat="47.20586" lon="6.03956">
        <ele>487</ele>
        <time>2014-09-16T17:12:43Z</time>
      </trkpt>
      <trkpt lat="47.20579" lon="6.03939">
        <ele>488.5</ele>
        <time>2014-09-16T17:12:46Z</time>
      </trkpt>
      <trkpt lat="47.20574" lon="6.03929">
        <ele>489.9</ele>
        <time>2014-09-16T17:12:51Z</time>
      </trkpt>
      <trkpt lat="47.20568" lon="6.03918">
        <ele>491.4</ele>
        <time>2014-09-16T17:12:54Z</time>
      </trkpt>
      <trkpt lat="47.20563" lon="6.03907">
        <ele>490.5</ele>
        <time>2014-09-16T17:12:59Z</time>
      </trkpt>
      <trkpt lat="47.20558" lon="6.03893">
        <ele>489.7</ele>
        <time>2014-09-16T17:13:03Z</time>
      </trkpt>
      <trkpt lat="47.20553" lon="6.03883">
        <ele>487.9</ele>
        <time>2014-09-16T17:13:07Z</time>
      </trkpt>
      <trkpt lat="47.20548" lon="6.03873">
        <ele>486.1</ele>
        <time>2014-09-16T17:13:11Z</time>
      </trkpt>
      <trkpt lat="47.20542" lon="6.03863">
        <ele>484.3</ele>
        <time>2014-09-16T17:13:14Z</time>
      </trkpt>
      <trkpt lat="47.20538" lon="6.03851">
        <ele>483.5</ele>
        <time>2014-09-16T17:13:19Z</time>
      </trkpt>
      <trkpt lat="47.20535" lon="6.03839">
        <ele>482.8</ele>
        <time>2014-09-16T17:13:22Z</time>
      </trkpt>
      <trkpt lat="47.2053" lon="6.03823">
        <ele>482.1</ele>
        <time>2014-09-16T17:13:26Z</time>
      </trkpt>
      <trkpt lat="47.20525" lon="6.03811">
        <ele>480.9</ele>
        <time>2014-09-16T17:13:28Z</time>
      </trkpt>
      <trkpt lat="47.2052" lon="6.038">
        <ele>479.7</ele>
        <time>2014-09-16T17:13:31Z</time>
      </trkpt>
      <trkpt lat="47.20514" lon="6.03789">
        <ele>478.5</ele>
        <time>2014-09-16T17:13:35Z</time>
      </trkpt>
      <trkpt lat="47.20507" lon="6.03779">
        <ele>479.6</ele>
        <time>2014-09-16T17:13:38Z</time>
      </trkpt>
      <trkpt lat="47.20502" lon="6.0377">
        <ele>480.7</ele>
        <time>2014-09-16T17:13:41Z</time>
      </trkpt>
      <trkpt lat="47.20496" lon="6.0376">
        <ele>482.4</ele>
        <time>2014-09-16T17:13:44Z</time>
      </trkpt>
      <trkpt lat="47.2049" lon="6.03751">
        <ele>484</ele>
        <time>2014-09-16T17:13:47Z</time>
      </trkpt>
      <trkpt lat="47.20486" lon="6.03739">
        <ele>485.6</ele>
        <time>2014-09-16T17:13:50Z</time>
      </trkpt>
      <trkpt lat="47.2048" lon="6.03728">
        <ele>486.2</ele>
        <time>2014-09-16T17:13:54Z</time>
      </trkpt>
      <trkpt lat="47.20477" lon="6.03712">
        <ele>486.7</ele>
        <time>2014-09-16T17:13:59Z</time>
      </trkpt>
      <trkpt lat="47.20475" lon="6.03698">
        <ele>487.3</ele>
        <time>2014-09-16T17:14:02Z</time>
      </trkpt>
      <trkpt lat="47.20471" lon="6.03687">
        <ele>486.2</ele>
        <time>2014-09-16T17:14:06Z</time>
      </trkpt>
      <trkpt lat="47.20467" lon="6.03672">
        <ele>485.1</ele>
        <time>2014-09-16T17:14:09Z</time>
      </trkpt>
      <trkpt lat="47.20465" lon="6.03657">
        <ele>484</ele>
        <time>2014-09-16T17:14:15Z</time>
      </trkpt>
      <trkpt lat="47.20463" lon="6.03644">
        <ele>482.9</ele>
        <time>2014-09-16T17:14:19Z</time>
      </trkpt>
      <trkpt lat="47.2046" lon="6.03631">
        <ele>481.8</ele>
        <time>2014-09-16T17:14:22Z</time>
      </trkpt>
      <trkpt lat="47.20453" lon="6.03619">
        <ele>480.2</ele>
        <time>2014-09-16T17:14:26Z</time>
      </trkpt>
      <trkpt lat="47.20449" lon="6.03607">
        <ele>478.6</ele>
        <time>2014-09-16T17:14:29Z</time>
      </trkpt>
      <trkpt lat="47.20446" lon="6.03594">
        <ele>477.1</ele>
        <time>2014-09-16T17:14:33Z</time>
      </trkpt>
      <trkpt lat="47.20443" lon="6.0358">
        <ele>475.5</ele>
        <time>2014-09-16T17:14:37Z</time>
      </trkpt>
      <trkpt lat="47.20438" lon="6.03567">
        <ele>474</ele>
        <time>2014-09-16T17:14:40Z</time>
      </trkpt>
      <trkpt lat="47.20433" lon="6.03556">
        <ele>472.5</ele>
        <time>2014-09-16T17:14:43Z</time>
      </trkpt>
      <trkpt lat="47.20428" lon="6.03544">
        <ele>472.5</ele>
        <time>2014-09-16T17:14:47Z</time>
      </trkpt>
      <trkpt lat="47.20423" lon="6.03532">
        <ele>473.1</ele>
        <time>2014-09-16T17:14:51Z</time>
      </trkpt>
      <trkpt lat="47.20419" lon="6.03519">
        <ele>473.6</ele>
        <time>2014-09-16T17:14:55Z</time>
      </trkpt>
      <trkpt lat="47.20416" lon="6.03505">
        <ele>474.2</ele>
        <time>2014-09-16T17:15:00Z</time>
      </trkpt>
      <trkpt lat="47.20414" lon="6.03492">
        <ele>474.7</ele>
        <time>2014-09-16T17:15:04Z</time>
      </trkpt>
      <trkpt lat="47.20412" lon="6.03477">
        <ele>475.3</ele>
        <time>2014-09-16T17:15:07Z</time>
      </trkpt>
      <trkpt lat="47.2041" lon="6.03462">
        <ele>475.7</ele>
        <time>2014-09-16T17:15:11Z</time>
      </trkpt>
      <trkpt lat="47.20408" lon="6.03449">
        <ele>476.2</ele>
        <time>2014-09-16T17:15:17Z</time>
      </trkpt>
      <trkpt lat="47.20406" lon="6.03436">
        <ele>476.8</ele>
        <time>2014-09-16T17:15:20Z</time>
      </trkpt>
      <trkpt lat="47.20404" lon="6.03423">
        <ele>477.5</ele>
        <time>2014-09-16T17:15:23Z</time>
      </trkpt>
      <trkpt lat="47.20404" lon="6.0341">
        <ele>478.1</ele>
        <time>2014-09-16T17:15:27Z</time>
      </trkpt>
      <trkpt lat="47.20403" lon="6.03398">
        <ele>478.7</ele>
        <time>2014-09-16T17:15:30Z</time>
      </trkpt>
      <trkpt lat="47.20402" lon="6.03383">
        <ele>478.9</ele>
        <time>2014-09-16T17:15:35Z</time>
      </trkpt>
      <trkpt lat="47.204" lon="6.03369">
        <ele>479.1</ele>
        <time>2014-09-16T17:15:38Z</time>
      </trkpt>
      <trkpt lat="47.20399" lon="6.03356">
        <ele>479.6</ele>
        <time>2014-09-16T17:15:41Z</time>
      </trkpt>
      <trkpt lat="47.20397" lon="6.03343">
        <ele>480.2</ele>
        <time>2014-09-16T17:15:45Z</time>
      </trkpt>
      <trkpt lat="47.20396" lon="6.03329">
        <ele>480.7</ele>
        <time>2014-09-16T17:15:49Z</time>
      </trkpt>
      <trkpt lat="47.20394" lon="6.03317">
        <ele>481.3</ele>
        <time>2014-09-16T17:15:53Z</time>
      </trkpt>
      <trkpt lat="47.20391" lon="6.03304">
        <ele>481.8</ele>
        <time>2014-09-16T17:15:56Z</time>
      </trkpt>
      <trkpt lat="47.20389" lon="6.03292">
        <ele>480.3</ele>
        <time>2014-09-16T17:16:00Z</time>
      </trkpt>
      <trkpt lat="47.20386" lon="6.03276">
        <ele>479</ele>
        <time>2014-09-16T17:16:06Z</time>
      </trkpt>
      <trkpt lat="47.20383" lon="6.03261">
        <ele>477.7</ele>
        <time>2014-09-16T17:16:11Z</time>
      </trkpt>
      <trkpt lat="47.20381" lon="6.03248">
        <ele>476.5</ele>
        <time>2014-09-16T17:16:14Z</time>
      </trkpt>
      <trkpt lat="47.20379" lon="6.03234">
        <ele>475.2</ele>
        <time>2014-09-16T17:16:17Z</time>
      </trkpt>
      <trkpt lat="47.20377" lon="6.03222">
        <ele>473.9</ele>
        <time>2014-09-16T17:16:21Z</time>
      </trkpt>
      <trkpt lat="47.20374" lon="6.03209">
        <ele>472.3</ele>
        <time>2014-09-16T17:16:25Z</time>
      </trkpt>
      <trkpt lat="47.20369" lon="6.03196">
        <ele>470.6</ele>
        <time>2014-09-16T17:16:29Z</time>
      </trkpt>
      <trkpt lat="47.20365" lon="6.03183">
        <ele>469.5</ele>
        <time>2014-09-16T17:16:33Z</time>
      </trkpt>
      <trkpt lat="47.20362" lon="6.03172">
        <ele>468.3</ele>
        <time>2014-09-16T17:16:37Z</time>
      </trkpt>
      <trkpt lat="47.20358" lon="6.0316">
        <ele>467.1</ele>
        <time>2014-09-16T17:16:41Z</time>
      </trkpt>
      <trkpt lat="47.20353" lon="6.03149">
        <ele>467.8</ele>
        <time>2014-09-16T17:16:44Z</time>
      </trkpt>
      <trkpt lat="47.20347" lon="6.03135">
        <ele>468.3</ele>
        <time>2014-09-16T17:16:48Z</time>
      </trkpt>
      <trkpt lat="47.20344" lon="6.03123">
        <ele>469.2</ele>
        <time>2014-09-16T17:16:51Z</time>
      </trkpt>
      <trkpt lat="47.20341" lon="6.03111">
        <ele>470.1</ele>
        <time>2014-09-16T17:16:56Z</time>
      </trkpt>
      <trkpt lat="47.20334" lon="6.03093">
        <ele>471</ele>
        <time>2014-09-16T17:17:00Z</time>
      </trkpt>
      <trkpt lat="47.20329" lon="6.03082">
        <ele>471.9</ele>
        <time>2014-09-16T17:17:02Z</time>
      </trkpt>
      <trkpt lat="47.2032" lon="6.03061">
        <ele>472.8</ele>
        <time>2014-09-16T17:17:10Z</time>
      </trkpt>
      <trkpt lat="47.20316" lon="6.03051">
        <ele>471.8</ele>
        <time>2014-09-16T17:17:13Z</time>
      </trkpt>
      <trkpt lat="47.20311" lon="6.03038">
        <ele>470.5</ele>
        <time>2014-09-16T17:17:17Z</time>
      </trkpt>
      <trkpt lat="47.20307" lon="6.03025">
        <ele>469.3</ele>
        <time>2014-09-16T17:17:20Z</time>
      </trkpt>
      <trkpt lat="47.20304" lon="6.03013">
        <ele>468</ele>
        <time>2014-09-16T17:17:24Z</time>
      </trkpt>
      <trkpt lat="47.20298" lon="6.02991">
        <ele>466.7</ele>
        <time>2014-09-16T17:17:32Z</time>
      </trkpt>
      <trkpt lat="47.20294" lon="6.0298">
        <ele>465.5</ele>
        <time>2014-09-16T17:17:35Z</time>
      </trkpt>
      <trkpt lat="47.2029" lon="6.02967">
        <ele>463.7</ele>
        <time>2014-09-16T17:17:38Z</time>
      </trkpt>
      <trkpt lat="47.20287" lon="6.02954">
        <ele>462</ele>
        <time>2014-09-16T17:17:42Z</time>
      </trkpt>
      <trkpt lat="47.20283" lon="6.02941">
        <ele>460.8</ele>
        <time>2014-09-16T17:17:45Z</time>
      </trkpt>
      <trkpt lat="47.20277" lon="6.02929">
        <ele>459.6</ele>
        <time>2014-09-16T17:17:49Z</time>
      </trkpt>
      <trkpt lat="47.20271" lon="6.02918">
        <ele>458.5</ele>
        <time>2014-09-16T17:17:53Z</time>
      </trkpt>
      <trkpt lat="47.20267" lon="6.02908">
        <ele>459.2</ele>
        <time>2014-09-16T17:17:57Z</time>
      </trkpt>
      <trkpt lat="47.20261" lon="6.02896">
        <ele>459.7</ele>
        <time>2014-09-16T17:18:02Z</time>
      </trkpt>
      <trkpt lat="47.20257" lon="6.02882">
        <ele>460.3</ele>
        <time>2014-09-16T17:18:06Z</time>
      </trkpt>
      <trkpt lat="47.20248" lon="6.02853">
        <ele>460.8</ele>
        <time>2014-09-16T17:18:15Z</time>
      </trkpt>
      <trkpt lat="47.20242" lon="6.0284">
        <ele>459.6</ele>
        <time>2014-09-16T17:18:17Z</time>
      </trkpt>
      <trkpt lat="47.20237" lon="6.02828">
        <ele>458.5</ele>
        <time>2014-09-16T17:18:23Z</time>
      </trkpt>
      <trkpt lat="47.20231" lon="6.02817">
        <ele>457.3</ele>
        <time>2014-09-16T17:18:25Z</time>
      </trkpt>
      <trkpt lat="47.20226" lon="6.02806">
        <ele>456.1</ele>
        <time>2014-09-16T17:18:28Z</time>
      </trkpt>
      <trkpt lat="47.20221" lon="6.02795">
        <ele>454.8</ele>
        <time>2014-09-16T17:18:32Z</time>
      </trkpt>
      <trkpt lat="47.20207" lon="6.02763">
        <ele>453.5</ele>
        <time>2014-09-16T17:18:44Z</time>
      </trkpt>
      <trkpt lat="47.20202" lon="6.02752">
        <ele>452.3</ele>
        <time>2014-09-16T17:18:46Z</time>
      </trkpt>
      <trkpt lat="47.20193" lon="6.0273">
        <ele>451</ele>
        <time>2014-09-16T17:18:52Z</time>
      </trkpt>
      <trkpt lat="47.20187" lon="6.02717">
        <ele>449.7</ele>
        <time>2014-09-16T17:18:55Z</time>
      </trkpt>
      <trkpt lat="47.20183" lon="6.02707">
        <ele>448.5</ele>
        <time>2014-09-16T17:18:58Z</time>
      </trkpt>
      <trkpt lat="47.20178" lon="6.02696">
        <ele>447.2</ele>
        <time>2014-09-16T17:19:01Z</time>
      </trkpt>
      <trkpt lat="47.20173" lon="6.02686">
        <ele>447.6</ele>
        <time>2014-09-16T17:19:05Z</time>
      </trkpt>
      <trkpt lat="47.20167" lon="6.02676">
        <ele>448.1</ele>
        <time>2014-09-16T17:19:07Z</time>
      </trkpt>
      <trkpt lat="47.20163" lon="6.02666">
        <ele>447.2</ele>
        <time>2014-09-16T17:19:10Z</time>
      </trkpt>
      <trkpt lat="47.20156" lon="6.02655">
        <ele>446.3</ele>
        <time>2014-09-16T17:19:15Z</time>
      </trkpt>
      <trkpt lat="47.20148" lon="6.02639">
        <ele>444.9</ele>
        <time>2014-09-16T17:19:20Z</time>
      </trkpt>
      <trkpt lat="47.20141" lon="6.02625">
        <ele>443.5</ele>
        <time>2014-09-16T17:19:24Z</time>
      </trkpt>
      <trkpt lat="47.20134" lon="6.02612">
        <ele>442.2</ele>
        <time>2014-09-16T17:19:27Z</time>
      </trkpt>
      <trkpt lat="47.20125" lon="6.02596">
        <ele>440.8</ele>
        <time>2014-09-16T17:19:33Z</time>
      </trkpt>
      <trkpt lat="47.20121" lon="6.02585">
        <ele>439.7</ele>
        <time>2014-09-16T17:19:36Z</time>
      </trkpt>
      <trkpt lat="47.20116" lon="6.02575">
        <ele>438.6</ele>
        <time>2014-09-16T17:19:39Z</time>
      </trkpt>
      <trkpt lat="47.2011" lon="6.02566">
        <ele>437.5</ele>
        <time>2014-09-16T17:19:41Z</time>
      </trkpt>
      <trkpt lat="47.20104" lon="6.02558">
        <ele>436.5</ele>
        <time>2014-09-16T17:19:45Z</time>
      </trkpt>
      <trkpt lat="47.20093" lon="6.02547">
        <ele>435.4</ele>
        <time>2014-09-16T17:19:50Z</time>
      </trkpt>
      <trkpt lat="47.20084" lon="6.02538">
        <ele>434.4</ele>
        <time>2014-09-16T17:19:54Z</time>
      </trkpt>
      <trkpt lat="47.20076" lon="6.0253">
        <ele>433.4</ele>
        <time>2014-09-16T17:19:57Z</time>
      </trkpt>
      <trkpt lat="47.2007" lon="6.02521">
        <ele>432.4</ele>
        <time>2014-09-16T17:20:00Z</time>
      </trkpt>
      <trkpt lat="47.20063" lon="6.02513">
        <ele>431.5</ele>
        <time>2014-09-16T17:20:03Z</time>
      </trkpt>
      <trkpt lat="47.20051" lon="6.02498">
        <ele>430.5</ele>
        <time>2014-09-16T17:20:10Z</time>
      </trkpt>
      <trkpt lat="47.2004" lon="6.02491">
        <ele>429.6</ele>
        <time>2014-09-16T17:20:15Z</time>
      </trkpt>
      <trkpt lat="47.20031" lon="6.02483">
        <ele>428.5</ele>
        <time>2014-09-16T17:20:19Z</time>
      </trkpt>
      <trkpt lat="47.20024" lon="6.02473">
        <ele>427.3</ele>
        <time>2014-09-16T17:20:22Z</time>
      </trkpt>
      <trkpt lat="47.20017" lon="6.02463">
        <ele>426.1</ele>
        <time>2014-09-16T17:20:27Z</time>
      </trkpt>
      <trkpt lat="47.20009" lon="6.02452">
        <ele>425.1</ele>
        <time>2014-09-16T17:20:31Z</time>
      </trkpt>
      <trkpt lat="47.20002" lon="6.02443">
        <ele>424.1</ele>
        <time>2014-09-16T17:20:35Z</time>
      </trkpt>
      <trkpt lat="47.19993" lon="6.02417">
        <ele>424.4</ele>
        <time>2014-09-16T17:20:44Z</time>
      </trkpt>
      <trkpt lat="47.19993" lon="6.024">
        <ele>424.6</ele>
        <time>2014-09-16T17:20:48Z</time>
      </trkpt>
      <trkpt lat="47.19996" lon="6.02387">
        <ele>424.7</ele>
        <time>2014-09-16T17:20:52Z</time>
      </trkpt>
      <trkpt lat="47.19999" lon="6.02376">
        <ele>424.7</ele>
        <time>2014-09-16T17:20:56Z</time>
      </trkpt>
      <trkpt lat="47.19988" lon="6.02366">
        <ele>423.5</ele>
        <time>2014-09-16T17:21:03Z</time>
      </trkpt>
      <trkpt lat="47.19978" lon="6.02371">
        <ele>422.2</ele>
        <time>2014-09-16T17:21:07Z</time>
      </trkpt>
      <trkpt lat="47.19971" lon="6.02379">
        <ele>420.9</ele>
        <time>2014-09-16T17:21:09Z</time>
      </trkpt>
      <trkpt lat="47.19966" lon="6.02389">
        <ele>419.6</ele>
        <time>2014-09-16T17:21:13Z</time>
      </trkpt>
      <trkpt lat="47.1996" lon="6.02402">
        <ele>418.4</ele>
        <time>2014-09-16T17:21:16Z</time>
      </trkpt>
      <trkpt lat="47.19953" lon="6.02408">
        <ele>416.9</ele>
        <time>2014-09-16T17:21:19Z</time>
      </trkpt>
      <trkpt lat="47.19944" lon="6.02416">
        <ele>415.5</ele>
        <time>2014-09-16T17:21:23Z</time>
      </trkpt>
      <trkpt lat="47.19936" lon="6.02423">
        <ele>414</ele>
        <time>2014-09-16T17:21:28Z</time>
      </trkpt>
      <trkpt lat="47.19926" lon="6.02431">
        <ele>412.5</ele>
        <time>2014-09-16T17:21:33Z</time>
      </trkpt>
      <trkpt lat="47.19918" lon="6.0244">
        <ele>411.3</ele>
        <time>2014-09-16T17:21:36Z</time>
      </trkpt>
      <trkpt lat="47.19912" lon="6.0245">
        <ele>409.3</ele>
        <time>2014-09-16T17:21:44Z</time>
      </trkpt>
      <trkpt lat="47.19904" lon="6.02445">
        <ele>408.5</ele>
        <time>2014-09-16T17:21:46Z</time>
      </trkpt>
      <trkpt lat="47.19895" lon="6.02437">
        <ele>407.8</ele>
        <time>2014-09-16T17:21:49Z</time>
      </trkpt>
      <trkpt lat="47.19888" lon="6.02431">
        <ele>407.1</ele>
        <time>2014-09-16T17:21:52Z</time>
      </trkpt>
      <trkpt lat="47.19881" lon="6.02424">
        <ele>406.4</ele>
        <time>2014-09-16T17:21:56Z</time>
      </trkpt>
      <trkpt lat="47.19872" lon="6.02417">
        <ele>406.2</ele>
        <time>2014-09-16T17:21:59Z</time>
      </trkpt>
      <trkpt lat="47.19865" lon="6.02409">
        <ele>406</ele>
        <time>2014-09-16T17:22:02Z</time>
      </trkpt>
      <trkpt lat="47.19858" lon="6.024">
        <ele>405.8</ele>
        <time>2014-09-16T17:22:06Z</time>
      </trkpt>
      <trkpt lat="47.19849" lon="6.0239">
        <ele>405.6</ele>
        <time>2014-09-16T17:22:09Z</time>
      </trkpt>
      <trkpt lat="47.19841" lon="6.02381">
        <ele>404.4</ele>
        <time>2014-09-16T17:22:14Z</time>
      </trkpt>
      <trkpt lat="47.19834" lon="6.02374">
        <ele>403.1</ele>
        <time>2014-09-16T17:22:16Z</time>
      </trkpt>
      <trkpt lat="47.19825" lon="6.02367">
        <ele>402.5</ele>
        <time>2014-09-16T17:22:20Z</time>
      </trkpt>
      <trkpt lat="47.19815" lon="6.0236">
        <ele>402</ele>
        <time>2014-09-16T17:22:25Z</time>
      </trkpt>
      <trkpt lat="47.19802" lon="6.02355">
        <ele>401.5</ele>
        <time>2014-09-16T17:22:30Z</time>
      </trkpt>
      <trkpt lat="47.19791" lon="6.02349">
        <ele>400.9</ele>
        <time>2014-09-16T17:22:35Z</time>
      </trkpt>
      <trkpt lat="47.19783" lon="6.02342">
        <ele>400.7</ele>
        <time>2014-09-16T17:22:38Z</time>
      </trkpt>
      <trkpt lat="47.19778" lon="6.02332">
        <ele>400</ele>
        <time>2014-09-16T17:22:42Z</time>
      </trkpt>
      <trkpt lat="47.19772" lon="6.02321">
        <ele>399.3</ele>
        <time>2014-09-16T17:22:46Z</time>
      </trkpt>
      <trkpt lat="47.19766" lon="6.02312">
        <ele>398.5</ele>
        <time>2014-09-16T17:22:51Z</time>
      </trkpt>
      <trkpt lat="47.1976" lon="6.02301">
        <ele>397.8</ele>
        <time>2014-09-16T17:22:55Z</time>
      </trkpt>
      <trkpt lat="47.19751" lon="6.02291">
        <ele>398.2</ele>
        <time>2014-09-16T17:22:58Z</time>
      </trkpt>
      <trkpt lat="47.19743" lon="6.0229">
        <ele>398.5</ele>
        <time>2014-09-16T17:23:02Z</time>
      </trkpt>
      <trkpt lat="47.19739" lon="6.02277">
        <ele>397.9</ele>
        <time>2014-09-16T17:23:08Z</time>
      </trkpt>
      <trkpt lat="47.19733" lon="6.02267">
        <ele>397.3</ele>
        <time>2014-09-16T17:23:12Z</time>
      </trkpt>
      <trkpt lat="47.19729" lon="6.02256">
        <ele>397.1</ele>
        <time>2014-09-16T17:23:16Z</time>
      </trkpt>
      <trkpt lat="47.19725" lon="6.02246">
        <ele>396.9</ele>
        <time>2014-09-16T17:23:19Z</time>
      </trkpt>
      <trkpt lat="47.19717" lon="6.02235">
        <ele>396.4</ele>
        <time>2014-09-16T17:23:24Z</time>
      </trkpt>
      <trkpt lat="47.1971" lon="6.02225">
        <ele>395.8</ele>
        <time>2014-09-16T17:23:28Z</time>
      </trkpt>
      <trkpt lat="47.19703" lon="6.02217">
        <ele>395.3</ele>
        <time>2014-09-16T17:23:33Z</time>
      </trkpt>
      <trkpt lat="47.19696" lon="6.02208">
        <ele>394.7</ele>
        <time>2014-09-16T17:23:36Z</time>
      </trkpt>
      <trkpt lat="47.19687" lon="6.02203">
        <ele>394.2</ele>
        <time>2014-09-16T17:23:40Z</time>
      </trkpt>
      <trkpt lat="47.19677" lon="6.02199">
        <ele>393.4</ele>
        <time>2014-09-16T17:23:44Z</time>
      </trkpt>
      <trkpt lat="47.19668" lon="6.02198">
        <ele>392.5</ele>
        <time>2014-09-16T17:23:47Z</time>
      </trkpt>
      <trkpt lat="47.19656" lon="6.022">
        <ele>392.7</ele>
        <time>2014-09-16T17:23:52Z</time>
      </trkpt>
      <trkpt lat="47.19647" lon="6.02205">
        <ele>392.9</ele>
        <time>2014-09-16T17:23:56Z</time>
      </trkpt>
      <trkpt lat="47.19639" lon="6.02214">
        <ele>392.6</ele>
        <time>2014-09-16T17:24:01Z</time>
      </trkpt>
      <trkpt lat="47.1963" lon="6.02221">
        <ele>392.4</ele>
        <time>2014-09-16T17:24:05Z</time>
      </trkpt>
      <trkpt lat="47.19623" lon="6.02227">
        <ele>392.1</ele>
        <time>2014-09-16T17:24:08Z</time>
      </trkpt>
      <trkpt lat="47.19615" lon="6.02232">
        <ele>391.8</ele>
        <time>2014-09-16T17:24:12Z</time>
      </trkpt>
      <trkpt lat="47.19606" lon="6.02235">
        <ele>391.5</ele>
        <time>2014-09-16T17:24:16Z</time>
      </trkpt>
      <trkpt lat="47.19596" lon="6.02237">
        <ele>391.3</ele>
        <time>2014-09-16T17:24:22Z</time>
      </trkpt>
      <trkpt lat="47.19587" lon="6.02239">
        <ele>391.2</ele>
        <time>2014-09-16T17:24:24Z</time>
      </trkpt>
      <trkpt lat="47.19578" lon="6.02238">
        <ele>391.4</ele>
        <time>2014-09-16T17:24:29Z</time>
      </trkpt>
      <trkpt lat="47.19568" lon="6.02238">
        <ele>391.5</ele>
        <time>2014-09-16T17:24:34Z</time>
      </trkpt>
      <trkpt lat="47.19559" lon="6.02237">
        <ele>391.7</ele>
        <time>2014-09-16T17:24:38Z</time>
      </trkpt>
      <trkpt lat="47.1955" lon="6.02234">
        <ele>391.9</ele>
        <time>2014-09-16T17:24:45Z</time>
      </trkpt>
      <trkpt lat="47.19539" lon="6.0223">
        <ele>392.1</ele>
        <time>2014-09-16T17:24:46Z</time>
      </trkpt>
      <trkpt lat="47.19532" lon="6.02221">
        <ele>392.3</ele>
        <time>2014-09-16T17:24:49Z</time>
      </trkpt>
      <trkpt lat="47.19526" lon="6.0221">
        <ele>392.5</ele>
        <time>2014-09-16T17:24:53Z</time>
      </trkpt>
      <trkpt lat="47.19519" lon="6.02194">
        <ele>392.6</ele>
        <time>2014-09-16T17:25:00Z</time>
      </trkpt>
      <trkpt lat="47.19514" lon="6.02184">
        <ele>392.8</ele>
        <time>2014-09-16T17:25:03Z</time>
      </trkpt>
      <trkpt lat="47.1951" lon="6.02173">
        <ele>393</ele>
        <time>2014-09-16T17:25:08Z</time>
      </trkpt>
      <trkpt lat="47.19504" lon="6.02164">
        <ele>393</ele>
        <time>2014-09-16T17:25:11Z</time>
      </trkpt>
      <trkpt lat="47.19497" lon="6.02155">
        <ele>393</ele>
        <time>2014-09-16T17:25:15Z</time>
      </trkpt>
      <trkpt lat="47.19491" lon="6.02144">
        <ele>393.1</ele>
        <time>2014-09-16T17:25:19Z</time>
      </trkpt>
      <trkpt lat="47.19485" lon="6.02134">
        <ele>393.2</ele>
        <time>2014-09-16T17:25:23Z</time>
      </trkpt>
      <trkpt lat="47.19477" lon="6.0212">
        <ele>393.3</ele>
        <time>2014-09-16T17:25:31Z</time>
      </trkpt>
      <trkpt lat="47.1947" lon="6.0211">
        <ele>393.4</ele>
        <time>2014-09-16T17:25:32Z</time>
      </trkpt>
      <trkpt lat="47.19461" lon="6.02099">
        <ele>393.5</ele>
        <time>2014-09-16T17:25:36Z</time>
      </trkpt>
      <trkpt lat="47.19454" lon="6.02091">
        <ele>393.2</ele>
        <time>2014-09-16T17:25:40Z</time>
      </trkpt>
      <trkpt lat="47.19447" lon="6.02082">
        <ele>392.9</ele>
        <time>2014-09-16T17:25:44Z</time>
      </trkpt>
      <trkpt lat="47.19439" lon="6.02074">
        <ele>392.6</ele>
        <time>2014-09-16T17:25:49Z</time>
      </trkpt>
      <trkpt lat="47.19431" lon="6.02067">
        <ele>392.4</ele>
        <time>2014-09-16T17:25:54Z</time>
      </trkpt>
      <trkpt lat="47.19424" lon="6.0206">
        <ele>392.1</ele>
        <time>2014-09-16T17:25:57Z</time>
      </trkpt>
      <trkpt lat="47.19414" lon="6.02049">
        <ele>392.3</ele>
        <time>2014-09-16T17:26:03Z</time>
      </trkpt>
      <trkpt lat="47.19407" lon="6.0204">
        <ele>392.4</ele>
        <time>2014-09-16T17:26:09Z</time>
      </trkpt>
      <trkpt lat="47.19397" lon="6.0203">
        <ele>392.5</ele>
        <time>2014-09-16T17:26:12Z</time>
      </trkpt>
      <trkpt lat="47.1939" lon="6.02021">
        <ele>392.5</ele>
        <time>2014-09-16T17:26:16Z</time>
      </trkpt>
      <trkpt lat="47.19383" lon="6.02013">
        <ele>392.5</ele>
        <time>2014-09-16T17:26:20Z</time>
      </trkpt>
      <trkpt lat="47.19376" lon="6.02002">
        <ele>392.4</ele>
        <time>2014-09-16T17:26:24Z</time>
      </trkpt>
      <trkpt lat="47.1937" lon="6.01994">
        <ele>392.6</ele>
        <time>2014-09-16T17:26:27Z</time>
      </trkpt>
      <trkpt lat="47.19363" lon="6.01982">
        <ele>392.9</ele>
        <time>2014-09-16T17:26:31Z</time>
      </trkpt>
      <trkpt lat="47.19357" lon="6.01971">
        <ele>393.2</ele>
        <time>2014-09-16T17:26:34Z</time>
      </trkpt>
      <trkpt lat="47.19352" lon="6.0196">
        <ele>393.5</ele>
        <time>2014-09-16T17:26:38Z</time>
      </trkpt>
      <trkpt lat="47.19346" lon="6.01947">
        <ele>393.7</ele>
        <time>2014-09-16T17:26:42Z</time>
      </trkpt>
      <trkpt lat="47.19341" lon="6.01937">
        <ele>393.5</ele>
        <time>2014-09-16T17:26:46Z</time>
      </trkpt>
      <trkpt lat="47.19336" lon="6.01925">
        <ele>393.2</ele>
        <time>2014-09-16T17:26:51Z</time>
      </trkpt>
      <trkpt lat="47.1933" lon="6.01915">
        <ele>392.9</ele>
        <time>2014-09-16T17:26:56Z</time>
      </trkpt>
      <trkpt lat="47.19325" lon="6.01903">
        <ele>393</ele>
        <time>2014-09-16T17:26:59Z</time>
      </trkpt>
      <trkpt lat="47.19319" lon="6.01893">
        <ele>393.3</ele>
        <time>2014-09-16T17:27:02Z</time>
      </trkpt>
      <trkpt lat="47.19313" lon="6.01881">
        <ele>393.5</ele>
        <time>2014-09-16T17:27:06Z</time>
      </trkpt>
      <trkpt lat="47.19306" lon="6.01872">
        <ele>393.8</ele>
        <time>2014-09-16T17:27:10Z</time>
      </trkpt>
      <trkpt lat="47.19299" lon="6.01863">
        <ele>394.1</ele>
        <time>2014-09-16T17:27:14Z</time>
      </trkpt>
      <trkpt lat="47.19293" lon="6.01854">
        <ele>394.4</ele>
        <time>2014-09-16T17:27:17Z</time>
      </trkpt>
      <trkpt lat="47.19286" lon="6.01847">
        <ele>394.6</ele>
        <time>2014-09-16T17:27:21Z</time>
      </trkpt>
      <trkpt lat="47.19279" lon="6.01841">
        <ele>394.9</ele>
        <time>2014-09-16T17:27:24Z</time>
      </trkpt>
      <trkpt lat="47.19271" lon="6.01833">
        <ele>395.3</ele>
        <time>2014-09-16T17:27:28Z</time>
      </trkpt>
      <trkpt lat="47.19263" lon="6.01825">
        <ele>395.1</ele>
        <time>2014-09-16T17:27:32Z</time>
      </trkpt>
      <trkpt lat="47.19253" lon="6.01812">
        <ele>394.9</ele>
        <time>2014-09-16T17:27:37Z</time>
      </trkpt>
      <trkpt lat="47.19245" lon="6.01806">
        <ele>394.5</ele>
        <time>2014-09-16T17:27:40Z</time>
      </trkpt>
      <trkpt lat="47.19236" lon="6.01801">
        <ele>394.2</ele>
        <time>2014-09-16T17:27:44Z</time>
      </trkpt>
      <trkpt lat="47.19228" lon="6.01795">
        <ele>393.8</ele>
        <time>2014-09-16T17:27:49Z</time>
      </trkpt>
      <trkpt lat="47.19222" lon="6.01787">
        <ele>393.5</ele>
        <time>2014-09-16T17:27:54Z</time>
      </trkpt>
      <trkpt lat="47.19215" lon="6.0178">
        <ele>393.1</ele>
        <time>2014-09-16T17:27:56Z</time>
      </trkpt>
      <trkpt lat="47.19206" lon="6.01773">
        <ele>392.7</ele>
        <time>2014-09-16T17:28:01Z</time>
      </trkpt>
      <trkpt lat="47.19197" lon="6.01767">
        <ele>392.4</ele>
        <time>2014-09-16T17:28:04Z</time>
      </trkpt>
      <trkpt lat="47.19183" lon="6.01753">
        <ele>392</ele>
        <time>2014-09-16T17:28:12Z</time>
      </trkpt>
      <trkpt lat="47.19176" lon="6.01747">
        <ele>391</ele>
        <time>2014-09-16T17:28:15Z</time>
      </trkpt>
      <trkpt lat="47.19167" lon="6.01739">
        <ele>390.8</ele>
        <time>2014-09-16T17:28:19Z</time>
      </trkpt>
      <trkpt lat="47.19159" lon="6.01733">
        <ele>390.6</ele>
        <time>2014-09-16T17:28:22Z</time>
      </trkpt>
      <trkpt lat="47.19151" lon="6.01725">
        <ele>390.3</ele>
        <time>2014-09-16T17:28:26Z</time>
      </trkpt>
      <trkpt lat="47.19143" lon="6.01717">
        <ele>389.9</ele>
        <time>2014-09-16T17:28:30Z</time>
      </trkpt>
      <trkpt lat="47.19135" lon="6.01707">
        <ele>389.5</ele>
        <time>2014-09-16T17:28:34Z</time>
      </trkpt>
      <trkpt lat="47.19126" lon="6.01699">
        <ele>389.2</ele>
        <time>2014-09-16T17:28:38Z</time>
      </trkpt>
      <trkpt lat="47.19117" lon="6.01691">
        <ele>388.8</ele>
        <time>2014-09-16T17:28:42Z</time>
      </trkpt>
      <trkpt lat="47.19109" lon="6.01682">
        <ele>388.5</ele>
        <time>2014-09-16T17:28:46Z</time>
      </trkpt>
      <trkpt lat="47.19103" lon="6.01674">
        <ele>388.1</ele>
        <time>2014-09-16T17:28:49Z</time>
      </trkpt>
      <trkpt lat="47.19095" lon="6.01666">
        <ele>387.7</ele>
        <time>2014-09-16T17:28:54Z</time>
      </trkpt>
      <trkpt lat="47.19086" lon="6.01659">
        <ele>387.5</ele>
        <time>2014-09-16T17:28:58Z</time>
      </trkpt>
      <trkpt lat="47.19079" lon="6.01652">
        <ele>387.1</ele>
        <time>2014-09-16T17:29:02Z</time>
      </trkpt>
      <trkpt lat="47.19071" lon="6.01645">
        <ele>386.7</ele>
        <time>2014-09-16T17:29:06Z</time>
      </trkpt>
      <trkpt lat="47.19064" lon="6.01636">
        <ele>386.4</ele>
        <time>2014-09-16T17:29:09Z</time>
      </trkpt>
      <trkpt lat="47.19055" lon="6.01629">
        <ele>386</ele>
        <time>2014-09-16T17:29:14Z</time>
      </trkpt>
      <trkpt lat="47.19047" lon="6.0162">
        <ele>385.6</ele>
        <time>2014-09-16T17:29:17Z</time>
      </trkpt>
      <trkpt lat="47.19041" lon="6.01611">
        <ele>385.3</ele>
        <time>2014-09-16T17:29:20Z</time>
      </trkpt>
      <trkpt lat="47.19033" lon="6.01603">
        <ele>384.9</ele>
        <time>2014-09-16T17:29:24Z</time>
      </trkpt>
      <trkpt lat="47.19026" lon="6.01593">
        <ele>384.5</ele>
        <time>2014-09-16T17:29:28Z</time>
      </trkpt>
      <trkpt lat="47.19019" lon="6.01586">
        <ele>384.2</ele>
        <time>2014-09-16T17:29:31Z</time>
      </trkpt>
      <trkpt lat="47.19011" lon="6.01578">
        <ele>383.5</ele>
        <time>2014-09-16T17:29:36Z</time>
      </trkpt>
      <trkpt lat="47.19003" lon="6.0157">
        <ele>383.3</ele>
        <time>2014-09-16T17:29:40Z</time>
      </trkpt>
      <trkpt lat="47.18995" lon="6.01563">
        <ele>383.6</ele>
        <time>2014-09-16T17:29:44Z</time>
      </trkpt>
      <trkpt lat="47.18988" lon="6.01554">
        <ele>384</ele>
        <time>2014-09-16T17:29:47Z</time>
      </trkpt>
      <trkpt lat="47.18979" lon="6.01549">
        <ele>384.4</ele>
        <time>2014-09-16T17:29:51Z</time>
      </trkpt>
      <trkpt lat="47.18972" lon="6.01537">
        <ele>384.7</ele>
        <time>2014-09-16T17:29:55Z</time>
      </trkpt>
      <trkpt lat="47.18965" lon="6.01527">
        <ele>385.1</ele>
        <time>2014-09-16T17:29:59Z</time>
      </trkpt>
      <trkpt lat="47.18957" lon="6.01518">
        <ele>385.5</ele>
        <time>2014-09-16T17:30:03Z</time>
      </trkpt>
      <trkpt lat="47.18945" lon="6.01505">
        <ele>385.2</ele>
        <time>2014-09-16T17:30:10Z</time>
      </trkpt>
      <trkpt lat="47.18937" lon="6.01498">
        <ele>384.9</ele>
        <time>2014-09-16T17:30:14Z</time>
      </trkpt>
      <trkpt lat="47.18931" lon="6.01487">
        <ele>384.6</ele>
        <time>2014-09-16T17:30:17Z</time>
      </trkpt>
      <trkpt lat="47.18924" lon="6.01478">
        <ele>384.7</ele>
        <time>2014-09-16T17:30:21Z</time>
      </trkpt>
      <trkpt lat="47.18917" lon="6.01467">
        <ele>385.3</ele>
        <time>2014-09-16T17:30:26Z</time>
      </trkpt>
      <trkpt lat="47.18909" lon="6.01459">
        <ele>385.1</ele>
        <time>2014-09-16T17:30:30Z</time>
      </trkpt>
      <trkpt lat="47.189" lon="6.01451">
        <ele>384.9</ele>
        <time>2014-09-16T17:30:34Z</time>
      </trkpt>
      <trkpt lat="47.18893" lon="6.01442">
        <ele>384.7</ele>
        <time>2014-09-16T17:30:38Z</time>
      </trkpt>
      <trkpt lat="47.18885" lon="6.01433">
        <ele>384.5</ele>
        <time>2014-09-16T17:30:43Z</time>
      </trkpt>
      <trkpt lat="47.18873" lon="6.01421">
        <ele>384.4</ele>
        <time>2014-09-16T17:30:48Z</time>
      </trkpt>
      <trkpt lat="47.18865" lon="6.01412">
        <ele>383.7</ele>
        <time>2014-09-16T17:30:51Z</time>
      </trkpt>
      <trkpt lat="47.18857" lon="6.01405">
        <ele>383.7</ele>
        <time>2014-09-16T17:30:56Z</time>
      </trkpt>
      <trkpt lat="47.1885" lon="6.01398">
        <ele>383.7</ele>
        <time>2014-09-16T17:30:59Z</time>
      </trkpt>
      <trkpt lat="47.18843" lon="6.0139">
        <ele>383.7</ele>
        <time>2014-09-16T17:31:04Z</time>
      </trkpt>
      <trkpt lat="47.18835" lon="6.01381">
        <ele>383.7</ele>
        <time>2014-09-16T17:31:07Z</time>
      </trkpt>
      <trkpt lat="47.18826" lon="6.01371">
        <ele>383.3</ele>
        <time>2014-09-16T17:31:12Z</time>
      </trkpt>
      <trkpt lat="47.18819" lon="6.01361">
        <ele>382.8</ele>
        <time>2014-09-16T17:31:15Z</time>
      </trkpt>
      <trkpt lat="47.18812" lon="6.0135">
        <ele>382.4</ele>
        <time>2014-09-16T17:31:20Z</time>
      </trkpt>
      <trkpt lat="47.18805" lon="6.01342">
        <ele>381.9</ele>
        <time>2014-09-16T17:31:24Z</time>
      </trkpt>
      <trkpt lat="47.18797" lon="6.01336">
        <ele>381.2</ele>
        <time>2014-09-16T17:31:27Z</time>
      </trkpt>
      <trkpt lat="47.1879" lon="6.01327">
        <ele>380.5</ele>
        <time>2014-09-16T17:31:32Z</time>
      </trkpt>
      <trkpt lat="47.18783" lon="6.01317">
        <ele>380.2</ele>
        <time>2014-09-16T17:31:36Z</time>
      </trkpt>
      <trkpt lat="47.18777" lon="6.01309">
        <ele>379.9</ele>
        <time>2014-09-16T17:31:39Z</time>
      </trkpt>
      <trkpt lat="47.18769" lon="6.01299">
        <ele>379.6</ele>
        <time>2014-09-16T17:31:43Z</time>
      </trkpt>
      <trkpt lat="47.18762" lon="6.01289">
        <ele>379.4</ele>
        <time>2014-09-16T17:31:48Z</time>
      </trkpt>
      <trkpt lat="47.18755" lon="6.01281">
        <ele>379.1</ele>
        <time>2014-09-16T17:31:51Z</time>
      </trkpt>
      <trkpt lat="47.1875" lon="6.01272">
        <ele>378.8</ele>
        <time>2014-09-16T17:31:55Z</time>
      </trkpt>
      <trkpt lat="47.18743" lon="6.01263">
        <ele>378.5</ele>
        <time>2014-09-16T17:32:00Z</time>
      </trkpt>
      <trkpt lat="47.18736" lon="6.01255">
        <ele>378.3</ele>
        <time>2014-09-16T17:32:04Z</time>
      </trkpt>
      <trkpt lat="47.1873" lon="6.01245">
        <ele>378</ele>
        <time>2014-09-16T17:32:07Z</time>
      </trkpt>
      <trkpt lat="47.18723" lon="6.01235">
        <ele>378</ele>
        <time>2014-09-16T17:32:11Z</time>
      </trkpt>
      <trkpt lat="47.18716" lon="6.01224">
        <ele>378</ele>
        <time>2014-09-16T17:32:15Z</time>
      </trkpt>
      <trkpt lat="47.18709" lon="6.01215">
        <ele>378</ele>
        <time>2014-09-16T17:32:19Z</time>
      </trkpt>
      <trkpt lat="47.18702" lon="6.01205">
        <ele>378</ele>
        <time>2014-09-16T17:32:23Z</time>
      </trkpt>
      <trkpt lat="47.18696" lon="6.01196">
        <ele>378</ele>
        <time>2014-09-16T17:32:27Z</time>
      </trkpt>
      <trkpt lat="47.1869" lon="6.01187">
        <ele>378</ele>
        <time>2014-09-16T17:32:31Z</time>
      </trkpt>
      <trkpt lat="47.18679" lon="6.01176">
        <ele>378.3</ele>
        <time>2014-09-16T17:32:39Z</time>
      </trkpt>
      <trkpt lat="47.18671" lon="6.01168">
        <ele>378.5</ele>
        <time>2014-09-16T17:32:43Z</time>
      </trkpt>
      <trkpt lat="47.18664" lon="6.0116">
        <ele>379</ele>
        <time>2014-09-16T17:32:46Z</time>
      </trkpt>
      <trkpt lat="47.18658" lon="6.01151">
        <ele>379.5</ele>
        <time>2014-09-16T17:32:51Z</time>
      </trkpt>
      <trkpt lat="47.18651" lon="6.01141">
        <ele>379.9</ele>
        <time>2014-09-16T17:32:55Z</time>
      </trkpt>
      <trkpt lat="47.18645" lon="6.01133">
        <ele>380.4</ele>
        <time>2014-09-16T17:32:59Z</time>
      </trkpt>
      <trkpt lat="47.18638" lon="6.01124">
        <ele>380.8</ele>
        <time>2014-09-16T17:33:03Z</time>
      </trkpt>
      <trkpt lat="47.1863" lon="6.01115">
        <ele>381.3</ele>
        <time>2014-09-16T17:33:07Z</time>
      </trkpt>
      <trkpt lat="47.18623" lon="6.01106">
        <ele>381.7</ele>
        <time>2014-09-16T17:33:13Z</time>
      </trkpt>
      <trkpt lat="47.18617" lon="6.01098">
        <ele>382.5</ele>
        <time>2014-09-16T17:33:16Z</time>
      </trkpt>
      <trkpt lat="47.1861" lon="6.01088">
        <ele>383.4</ele>
        <time>2014-09-16T17:33:21Z</time>
      </trkpt>
      <trkpt lat="47.18603" lon="6.0108">
        <ele>383.9</ele>
        <time>2014-09-16T17:33:25Z</time>
      </trkpt>
      <trkpt lat="47.18598" lon="6.01071">
        <ele>384.5</ele>
        <time>2014-09-16T17:33:29Z</time>
      </trkpt>
      <trkpt lat="47.18593" lon="6.01059">
        <ele>384.8</ele>
        <time>2014-09-16T17:33:34Z</time>
      </trkpt>
      <trkpt lat="47.18589" lon="6.01047">
        <ele>385.2</ele>
        <time>2014-09-16T17:33:39Z</time>
      </trkpt>
      <trkpt lat="47.18586" lon="6.01033">
        <ele>385.5</ele>
        <time>2014-09-16T17:33:45Z</time>
      </trkpt>
      <trkpt lat="47.18583" lon="6.01021">
        <ele>386.4</ele>
        <time>2014-09-16T17:33:48Z</time>
      </trkpt>
      <trkpt lat="47.18579" lon="6.0101">
        <ele>387.2</ele>
        <time>2014-09-16T17:33:53Z</time>
      </trkpt>
      <trkpt lat="47.18575" lon="6.00999">
        <ele>388</ele>
        <time>2014-09-16T17:33:57Z</time>
      </trkpt>
      <trkpt lat="47.1857" lon="6.00989">
        <ele>388.8</ele>
        <time>2014-09-16T17:34:01Z</time>
      </trkpt>
      <trkpt lat="47.18565" lon="6.00975">
        <ele>389.3</ele>
        <time>2014-09-16T17:34:05Z</time>
      </trkpt>
      <trkpt lat="47.18562" lon="6.00964">
        <ele>389.3</ele>
        <time>2014-09-16T17:34:09Z</time>
      </trkpt>
      <trkpt lat="47.1856" lon="6.0095">
        <ele>389.3</ele>
        <time>2014-09-16T17:34:13Z</time>
      </trkpt>
      <trkpt lat="47.18556" lon="6.00936">
        <ele>389.6</ele>
        <time>2014-09-16T17:34:17Z</time>
      </trkpt>
      <trkpt lat="47.18552" lon="6.00925">
        <ele>390</ele>
        <time>2014-09-16T17:34:21Z</time>
      </trkpt>
      <trkpt lat="47.18545" lon="6.00913">
        <ele>390.4</ele>
        <time>2014-09-16T17:34:27Z</time>
      </trkpt>
      <trkpt lat="47.1854" lon="6.00901">
        <ele>390.7</ele>
        <time>2014-09-16T17:34:30Z</time>
      </trkpt>
      <trkpt lat="47.18534" lon="6.00889">
        <ele>390.6</ele>
        <time>2014-09-16T17:34:33Z</time>
      </trkpt>
      <trkpt lat="47.18529" lon="6.00879">
        <ele>390.5</ele>
        <time>2014-09-16T17:34:37Z</time>
      </trkpt>
      <trkpt lat="47.18522" lon="6.0087">
        <ele>390.5</ele>
        <time>2014-09-16T17:34:41Z</time>
      </trkpt>
      <trkpt lat="47.18514" lon="6.0086">
        <ele>390.4</ele>
        <time>2014-09-16T17:34:45Z</time>
      </trkpt>
      <trkpt lat="47.18506" lon="6.00852">
        <ele>390.3</ele>
        <time>2014-09-16T17:34:49Z</time>
      </trkpt>
      <trkpt lat="47.18498" lon="6.00847">
        <ele>390.1</ele>
        <time>2014-09-16T17:34:53Z</time>
      </trkpt>
      <trkpt lat="47.1849" lon="6.00843">
        <ele>389.9</ele>
        <time>2014-09-16T17:34:58Z</time>
      </trkpt>
      <trkpt lat="47.18482" lon="6.00836">
        <ele>389.4</ele>
        <time>2014-09-16T17:35:01Z</time>
      </trkpt>
      <trkpt lat="47.18473" lon="6.00831">
        <ele>388.8</ele>
        <time>2014-09-16T17:35:06Z</time>
      </trkpt>
      <trkpt lat="47.18463" lon="6.00828">
        <ele>388.3</ele>
        <time>2014-09-16T17:35:09Z</time>
      </trkpt>
      <trkpt lat="47.18451" lon="6.00825">
        <ele>387.7</ele>
        <time>2014-09-16T17:35:15Z</time>
      </trkpt>
      <trkpt lat="47.18443" lon="6.00818">
        <ele>387.2</ele>
        <time>2014-09-16T17:35:18Z</time>
      </trkpt>
      <trkpt lat="47.18435" lon="6.00812">
        <ele>386.6</ele>
        <time>2014-09-16T17:35:22Z</time>
      </trkpt>
      <trkpt lat="47.18426" lon="6.00806">
        <ele>386.1</ele>
        <time>2014-09-16T17:35:27Z</time>
      </trkpt>
      <trkpt lat="47.18417" lon="6.00798">
        <ele>385.5</ele>
        <time>2014-09-16T17:35:31Z</time>
      </trkpt>
      <trkpt lat="47.18411" lon="6.00791">
        <ele>384.9</ele>
        <time>2014-09-16T17:35:35Z</time>
      </trkpt>
      <trkpt lat="47.18405" lon="6.00782">
        <ele>384.8</ele>
        <time>2014-09-16T17:35:39Z</time>
      </trkpt>
      <trkpt lat="47.18397" lon="6.00771">
        <ele>384.7</ele>
        <time>2014-09-16T17:35:43Z</time>
      </trkpt>
      <trkpt lat="47.1839" lon="6.00762">
        <ele>384.6</ele>
        <time>2014-09-16T17:35:48Z</time>
      </trkpt>
      <trkpt lat="47.18382" lon="6.00752">
        <ele>384.5</ele>
        <time>2014-09-16T17:35:52Z</time>
      </trkpt>
      <trkpt lat="47.18375" lon="6.00741">
        <ele>384.5</ele>
        <time>2014-09-16T17:35:55Z</time>
      </trkpt>
      <trkpt lat="47.18369" lon="6.00729">
        <ele>384.4</ele>
        <time>2014-09-16T17:35:59Z</time>
      </trkpt>
      <trkpt lat="47.18362" lon="6.0072">
        <ele>384.3</ele>
        <time>2014-09-16T17:36:03Z</time>
      </trkpt>
      <trkpt lat="47.18356" lon="6.00709">
        <ele>384.2</ele>
        <time>2014-09-16T17:36:07Z</time>
      </trkpt>
      <trkpt lat="47.18349" lon="6.007">
        <ele>384.1</ele>
        <time>2014-09-16T17:36:11Z</time>
      </trkpt>
      <trkpt lat="47.18342" lon="6.0069">
        <ele>384</ele>
        <time>2014-09-16T17:36:14Z</time>
      </trkpt>
      <trkpt lat="47.18336" lon="6.00682">
        <ele>384</ele>
        <time>2014-09-16T17:36:17Z</time>
      </trkpt>
      <trkpt lat="47.18329" lon="6.0067">
        <ele>383.8</ele>
        <time>2014-09-16T17:36:21Z</time>
      </trkpt>
      <trkpt lat="47.18321" lon="6.00658">
        <ele>383.6</ele>
        <time>2014-09-16T17:36:27Z</time>
      </trkpt>
      <trkpt lat="47.18315" lon="6.00649">
        <ele>383.5</ele>
        <time>2014-09-16T17:36:30Z</time>
      </trkpt>
      <trkpt lat="47.18308" lon="6.00639">
        <ele>383.3</ele>
        <time>2014-09-16T17:36:34Z</time>
      </trkpt>
      <trkpt lat="47.18301" lon="6.00629">
        <ele>383.1</ele>
        <time>2014-09-16T17:36:38Z</time>
      </trkpt>
      <trkpt lat="47.18294" lon="6.00619">
        <ele>382.9</ele>
        <time>2014-09-16T17:36:42Z</time>
      </trkpt>
      <trkpt lat="47.18288" lon="6.00608">
        <ele>382.7</ele>
        <time>2014-09-16T17:36:46Z</time>
      </trkpt>
      <trkpt lat="47.18282" lon="6.00599">
        <ele>382.5</ele>
        <time>2014-09-16T17:36:49Z</time>
      </trkpt>
      <trkpt lat="47.18276" lon="6.00588">
        <ele>382.5</ele>
        <time>2014-09-16T17:36:52Z</time>
      </trkpt>
      <trkpt lat="47.1827" lon="6.00579">
        <ele>382.4</ele>
        <time>2014-09-16T17:36:57Z</time>
      </trkpt>
      <trkpt lat="47.18262" lon="6.00568">
        <ele>382.3</ele>
        <time>2014-09-16T17:37:00Z</time>
      </trkpt>
      <trkpt lat="47.18255" lon="6.00559">
        <ele>382.4</ele>
        <time>2014-09-16T17:37:05Z</time>
      </trkpt>
      <trkpt lat="47.18247" lon="6.0055">
        <ele>381.8</ele>
        <time>2014-09-16T17:37:09Z</time>
      </trkpt>
      <trkpt lat="47.18239" lon="6.0054">
        <ele>381.3</ele>
        <time>2014-09-16T17:37:13Z</time>
      </trkpt>
      <trkpt lat="47.18232" lon="6.0053">
        <ele>380.7</ele>
        <time>2014-09-16T17:37:17Z</time>
      </trkpt>
      <trkpt lat="47.18225" lon="6.00521">
        <ele>380.2</ele>
        <time>2014-09-16T17:37:20Z</time>
      </trkpt>
      <trkpt lat="47.18217" lon="6.00514">
        <ele>379.6</ele>
        <time>2014-09-16T17:37:24Z</time>
      </trkpt>
      <trkpt lat="47.1821" lon="6.00506">
        <ele>379.1</ele>
        <time>2014-09-16T17:37:28Z</time>
      </trkpt>
      <trkpt lat="47.18201" lon="6.00501">
        <ele>378.5</ele>
        <time>2014-09-16T17:37:33Z</time>
      </trkpt>
      <trkpt lat="47.18191" lon="6.00493">
        <ele>377.4</ele>
        <time>2014-09-16T17:37:36Z</time>
      </trkpt>
      <trkpt lat="47.18184" lon="6.00487">
        <ele>376.2</ele>
        <time>2014-09-16T17:37:39Z</time>
      </trkpt>
      <trkpt lat="47.18177" lon="6.0048">
        <ele>375</ele>
        <time>2014-09-16T17:37:42Z</time>
      </trkpt>
      <trkpt lat="47.1817" lon="6.00472">
        <ele>373.6</ele>
        <time>2014-09-16T17:37:46Z</time>
      </trkpt>
      <trkpt lat="47.18162" lon="6.00464">
        <ele>372.9</ele>
        <time>2014-09-16T17:37:50Z</time>
      </trkpt>
      <trkpt lat="47.18155" lon="6.00457">
        <ele>372.2</ele>
        <time>2014-09-16T17:37:53Z</time>
      </trkpt>
      <trkpt lat="47.18145" lon="6.00447">
        <ele>371.5</ele>
        <time>2014-09-16T17:37:59Z</time>
      </trkpt>
      <trkpt lat="47.18137" lon="6.0044">
        <ele>370.7</ele>
        <time>2014-09-16T17:38:04Z</time>
      </trkpt>
      <trkpt lat="47.18129" lon="6.00432">
        <ele>370</ele>
        <time>2014-09-16T17:38:06Z</time>
      </trkpt>
      <trkpt lat="47.1812" lon="6.00425">
        <ele>368.8</ele>
        <time>2014-09-16T17:38:10Z</time>
      </trkpt>
      <trkpt lat="47.18113" lon="6.00416">
        <ele>367.6</ele>
        <time>2014-09-16T17:38:15Z</time>
      </trkpt>
      <trkpt lat="47.18103" lon="6.00404">
        <ele>367</ele>
        <time>2014-09-16T17:38:20Z</time>
      </trkpt>
      <trkpt lat="47.18094" lon="6.00393">
        <ele>366.4</ele>
        <time>2014-09-16T17:38:26Z</time>
      </trkpt>
      <trkpt lat="47.18087" lon="6.00384">
        <ele>365.7</ele>
        <time>2014-09-16T17:38:28Z</time>
      </trkpt>
      <trkpt lat="47.1808" lon="6.00375">
        <ele>365.3</ele>
        <time>2014-09-16T17:38:33Z</time>
      </trkpt>
      <trkpt lat="47.18073" lon="6.00366">
        <ele>364.5</ele>
        <time>2014-09-16T17:38:36Z</time>
      </trkpt>
      <trkpt lat="47.18067" lon="6.00355">
        <ele>363.6</ele>
        <time>2014-09-16T17:38:40Z</time>
      </trkpt>
      <trkpt lat="47.18061" lon="6.00344">
        <ele>362.9</ele>
        <time>2014-09-16T17:38:45Z</time>
      </trkpt>
      <trkpt lat="47.18054" lon="6.00333">
        <ele>362.2</ele>
        <time>2014-09-16T17:38:50Z</time>
      </trkpt>
      <trkpt lat="47.18048" lon="6.00322">
        <ele>361.5</ele>
        <time>2014-09-16T17:38:54Z</time>
      </trkpt>
      <trkpt lat="47.18042" lon="6.00311">
        <ele>361.2</ele>
        <time>2014-09-16T17:38:57Z</time>
      </trkpt>
      <trkpt lat="47.18037" lon="6.003">
        <ele>360.9</ele>
        <time>2014-09-16T17:39:02Z</time>
      </trkpt>
      <trkpt lat="47.18032" lon="6.00288">
        <ele>360.6</ele>
        <time>2014-09-16T17:39:06Z</time>
      </trkpt>
      <trkpt lat="47.18027" lon="6.00276">
        <ele>360.4</ele>
        <time>2014-09-16T17:39:09Z</time>
      </trkpt>
      <trkpt lat="47.18021" lon="6.00266">
        <ele>360.1</ele>
        <time>2014-09-16T17:39:13Z</time>
      </trkpt>
      <trkpt lat="47.18016" lon="6.00256">
        <ele>359.8</ele>
        <time>2014-09-16T17:39:17Z</time>
      </trkpt>
      <trkpt lat="47.18012" lon="6.00244">
        <ele>359.9</ele>
        <time>2014-09-16T17:39:21Z</time>
      </trkpt>
      <trkpt lat="47.18008" lon="6.00233">
        <ele>360</ele>
        <time>2014-09-16T17:39:25Z</time>
      </trkpt>
      <trkpt lat="47.18003" lon="6.0022">
        <ele>360</ele>
        <time>2014-09-16T17:39:30Z</time>
      </trkpt>
      <trkpt lat="47.17999" lon="6.00208">
        <ele>360</ele>
        <time>2014-09-16T17:39:34Z</time>
      </trkpt>
      <trkpt lat="47.17996" lon="6.00194">
        <ele>360.4</ele>
        <time>2014-09-16T17:39:38Z</time>
      </trkpt>
      <trkpt lat="47.17992" lon="6.00182">
        <ele>360.7</ele>
        <time>2014-09-16T17:39:42Z</time>
      </trkpt>
      <trkpt lat="47.17989" lon="6.00169">
        <ele>361.1</ele>
        <time>2014-09-16T17:39:47Z</time>
      </trkpt>
      <trkpt lat="47.17986" lon="6.00158">
        <ele>361.5</ele>
        <time>2014-09-16T17:39:51Z</time>
      </trkpt>
      <trkpt lat="47.17982" lon="6.00144">
        <ele>361.8</ele>
        <time>2014-09-16T17:39:55Z</time>
      </trkpt>
      <trkpt lat="47.17978" lon="6.00132">
        <ele>362.2</ele>
        <time>2014-09-16T17:39:59Z</time>
      </trkpt>
      <trkpt lat="47.17976" lon="6.00119">
        <ele>362.2</ele>
        <time>2014-09-16T17:40:04Z</time>
      </trkpt>
      <trkpt lat="47.17973" lon="6.00105">
        <ele>362.2</ele>
        <time>2014-09-16T17:40:07Z</time>
      </trkpt>
      <trkpt lat="47.1797" lon="6.00091">
        <ele>362.2</ele>
        <time>2014-09-16T17:40:12Z</time>
      </trkpt>
      <trkpt lat="47.17968" lon="6.00079">
        <ele>362.2</ele>
        <time>2014-09-16T17:40:15Z</time>
      </trkpt>
      <trkpt lat="47.17964" lon="6.00066">
        <ele>362.2</ele>
        <time>2014-09-16T17:40:19Z</time>
      </trkpt>
      <trkpt lat="47.1796" lon="6.00048">
        <ele>361.8</ele>
        <time>2014-09-16T17:40:26Z</time>
      </trkpt>
      <trkpt lat="47.17956" lon="6.00036">
        <ele>361.5</ele>
        <time>2014-09-16T17:40:29Z</time>
      </trkpt>
      <trkpt lat="47.17953" lon="6.00022">
        <ele>361.3</ele>
        <time>2014-09-16T17:40:33Z</time>
      </trkpt>
      <trkpt lat="47.1795" lon="6.0001">
        <ele>361.1</ele>
        <time>2014-09-16T17:40:38Z</time>
      </trkpt>
      <trkpt lat="47.17948" lon="5.99997">
        <ele>360.9</ele>
        <time>2014-09-16T17:40:42Z</time>
      </trkpt>
      <trkpt lat="47.17945" lon="5.99984">
        <ele>360.7</ele>
        <time>2014-09-16T17:40:47Z</time>
      </trkpt>
      <trkpt lat="47.17942" lon="5.99972">
        <ele>360.9</ele>
        <time>2014-09-16T17:40:51Z</time>
      </trkpt>
      <trkpt lat="47.1794" lon="5.9996">
        <ele>361.1</ele>
        <time>2014-09-16T17:40:54Z</time>
      </trkpt>
      <trkpt lat="47.17935" lon="5.99947">
        <ele>361.5</ele>
        <time>2014-09-16T17:41:00Z</time>
      </trkpt>
      <trkpt lat="47.17933" lon="5.99935">
        <ele>361.8</ele>
        <time>2014-09-16T17:41:03Z</time>
      </trkpt>
      <trkpt lat="47.17929" lon="5.99921">
        <ele>362.2</ele>
        <time>2014-09-16T17:41:07Z</time>
      </trkpt>
      <trkpt lat="47.17927" lon="5.99909">
        <ele>362.5</ele>
        <time>2014-09-16T17:41:11Z</time>
      </trkpt>
      <trkpt lat="47.17922" lon="5.99896">
        <ele>362.9</ele>
        <time>2014-09-16T17:41:16Z</time>
      </trkpt>
      <trkpt lat="47.17919" lon="5.99884">
        <ele>363.1</ele>
        <time>2014-09-16T17:41:21Z</time>
      </trkpt>
      <trkpt lat="47.17917" lon="5.99871">
        <ele>363.3</ele>
        <time>2014-09-16T17:41:25Z</time>
      </trkpt>
      <trkpt lat="47.17915" lon="5.99856">
        <ele>363.7</ele>
        <time>2014-09-16T17:41:29Z</time>
      </trkpt>
      <trkpt lat="47.17912" lon="5.99842">
        <ele>364.2</ele>
        <time>2014-09-16T17:41:35Z</time>
      </trkpt>
      <trkpt lat="47.17908" lon="5.99827">
        <ele>364.6</ele>
        <time>2014-09-16T17:41:42Z</time>
      </trkpt>
      <trkpt lat="47.17905" lon="5.99815">
        <ele>365.1</ele>
        <time>2014-09-16T17:41:44Z</time>
      </trkpt>
      <trkpt lat="47.17901" lon="5.99801">
        <ele>365.4</ele>
        <time>2014-09-16T17:41:48Z</time>
      </trkpt>
      <trkpt lat="47.17898" lon="5.99789">
        <ele>365.6</ele>
        <time>2014-09-16T17:41:52Z</time>
      </trkpt>
      <trkpt lat="47.17895" lon="5.99778">
        <ele>365.9</ele>
        <time>2014-09-16T17:41:57Z</time>
      </trkpt>
      <trkpt lat="47.17891" lon="5.99766">
        <ele>365.9</ele>
        <time>2014-09-16T17:42:02Z</time>
      </trkpt>
      <trkpt lat="47.17889" lon="5.9975">
        <ele>365.9</ele>
        <time>2014-09-16T17:42:07Z</time>
      </trkpt>
      <trkpt lat="47.17886" lon="5.99739">
        <ele>365.9</ele>
        <time>2014-09-16T17:42:11Z</time>
      </trkpt>
      <trkpt lat="47.17883" lon="5.99725">
        <ele>365.9</ele>
        <time>2014-09-16T17:42:16Z</time>
      </trkpt>
      <trkpt lat="47.1788" lon="5.9971">
        <ele>365.6</ele>
        <time>2014-09-16T17:42:20Z</time>
      </trkpt>
      <trkpt lat="47.17878" lon="5.99699">
        <ele>365.4</ele>
        <time>2014-09-16T17:42:24Z</time>
      </trkpt>
      <trkpt lat="47.17873" lon="5.99686">
        <ele>365.3</ele>
        <time>2014-09-16T17:42:30Z</time>
      </trkpt>
      <trkpt lat="47.17869" lon="5.99673">
        <ele>365.2</ele>
        <time>2014-09-16T17:42:34Z</time>
      </trkpt>
      <trkpt lat="47.17865" lon="5.9966">
        <ele>365.1</ele>
        <time>2014-09-16T17:42:38Z</time>
      </trkpt>
      <trkpt lat="47.17861" lon="5.99649">
        <ele>365</ele>
        <time>2014-09-16T17:42:43Z</time>
      </trkpt>
      <trkpt lat="47.17857" lon="5.99637">
        <ele>364.9</ele>
        <time>2014-09-16T17:42:48Z</time>
      </trkpt>
      <trkpt lat="47.17853" lon="5.99625">
        <ele>365.1</ele>
        <time>2014-09-16T17:42:52Z</time>
      </trkpt>
      <trkpt lat="47.17849" lon="5.99612">
        <ele>365.3</ele>
        <time>2014-09-16T17:42:57Z</time>
      </trkpt>
      <trkpt lat="47.17846" lon="5.99599">
        <ele>365.7</ele>
        <time>2014-09-16T17:43:01Z</time>
      </trkpt>
      <trkpt lat="47.17841" lon="5.99587">
        <ele>366.2</ele>
        <time>2014-09-16T17:43:06Z</time>
      </trkpt>
      <trkpt lat="47.17837" lon="5.99576">
        <ele>366.6</ele>
        <time>2014-09-16T17:43:10Z</time>
      </trkpt>
      <trkpt lat="47.17833" lon="5.99565">
        <ele>367.1</ele>
        <time>2014-09-16T17:43:14Z</time>
      </trkpt>
      <trkpt lat="47.17831" lon="5.99551">
        <ele>367.4</ele>
        <time>2014-09-16T17:43:19Z</time>
      </trkpt>
      <trkpt lat="47.17828" lon="5.99539">
        <ele>367.6</ele>
        <time>2014-09-16T17:43:23Z</time>
      </trkpt>
      <trkpt lat="47.17822" lon="5.9952">
        <ele>368.3</ele>
        <time>2014-09-16T17:43:31Z</time>
      </trkpt>
      <trkpt lat="47.17818" lon="5.99506">
        <ele>368.9</ele>
        <time>2014-09-16T17:43:34Z</time>
      </trkpt>
      <trkpt lat="47.17816" lon="5.99494">
        <ele>369.5</ele>
        <time>2014-09-16T17:43:38Z</time>
      </trkpt>
      <trkpt lat="47.17811" lon="5.99484">
        <ele>370.2</ele>
        <time>2014-09-16T17:43:42Z</time>
      </trkpt>
      <trkpt lat="47.17807" lon="5.99473">
        <ele>370</ele>
        <time>2014-09-16T17:43:46Z</time>
      </trkpt>
      <trkpt lat="47.17803" lon="5.99461">
        <ele>369.5</ele>
        <time>2014-09-16T17:43:50Z</time>
      </trkpt>
      <trkpt lat="47.178" lon="5.9945">
        <ele>369.1</ele>
        <time>2014-09-16T17:43:54Z</time>
      </trkpt>
      <trkpt lat="47.17799" lon="5.99437">
        <ele>368.6</ele>
        <time>2014-09-16T17:43:59Z</time>
      </trkpt>
      <trkpt lat="47.17797" lon="5.99424">
        <ele>368.2</ele>
        <time>2014-09-16T17:44:04Z</time>
      </trkpt>
      <trkpt lat="47.17795" lon="5.99409">
        <ele>367.7</ele>
        <time>2014-09-16T17:44:07Z</time>
      </trkpt>
      <trkpt lat="47.17793" lon="5.99394">
        <ele>367.3</ele>
        <time>2014-09-16T17:44:12Z</time>
      </trkpt>
      <trkpt lat="47.17793" lon="5.99382">
        <ele>366.5</ele>
        <time>2014-09-16T17:44:17Z</time>
      </trkpt>
      <trkpt lat="47.17791" lon="5.99369">
        <ele>365.6</ele>
        <time>2014-09-16T17:44:21Z</time>
      </trkpt>
      <trkpt lat="47.1779" lon="5.99356">
        <ele>365.5</ele>
        <time>2014-09-16T17:44:25Z</time>
      </trkpt>
      <trkpt lat="47.17788" lon="5.99343">
        <ele>365.5</ele>
        <time>2014-09-16T17:44:30Z</time>
      </trkpt>
      <trkpt lat="47.17787" lon="5.9933">
        <ele>366.2</ele>
        <time>2014-09-16T17:44:35Z</time>
      </trkpt>
      <trkpt lat="47.17784" lon="5.99318">
        <ele>366.9</ele>
        <time>2014-09-16T17:44:38Z</time>
      </trkpt>
      <trkpt lat="47.17782" lon="5.99306">
        <ele>367.6</ele>
        <time>2014-09-16T17:44:43Z</time>
      </trkpt>
      <trkpt lat="47.1778" lon="5.99293">
        <ele>368.4</ele>
        <time>2014-09-16T17:44:47Z</time>
      </trkpt>
      <trkpt lat="47.17778" lon="5.99281">
        <ele>369.5</ele>
        <time>2014-09-16T17:44:50Z</time>
      </trkpt>
      <trkpt lat="47.17776" lon="5.99268">
        <ele>370.7</ele>
        <time>2014-09-16T17:44:54Z</time>
      </trkpt>
      <trkpt lat="47.17773" lon="5.99254">
        <ele>371.9</ele>
        <time>2014-09-16T17:44:59Z</time>
      </trkpt>
      <trkpt lat="47.17769" lon="5.99242">
        <ele>373.1</ele>
        <time>2014-09-16T17:45:04Z</time>
      </trkpt>
      <trkpt lat="47.17763" lon="5.99222">
        <ele>374.3</ele>
        <time>2014-09-16T17:45:12Z</time>
      </trkpt>
      <trkpt lat="47.17759" lon="5.99209">
        <ele>374.7</ele>
        <time>2014-09-16T17:45:17Z</time>
      </trkpt>
      <trkpt lat="47.17755" lon="5.99196">
        <ele>375.2</ele>
        <time>2014-09-16T17:45:21Z</time>
      </trkpt>
      <trkpt lat="47.17751" lon="5.99183">
        <ele>375.9</ele>
        <time>2014-09-16T17:45:25Z</time>
      </trkpt>
      <trkpt lat="47.17748" lon="5.99172">
        <ele>376.6</ele>
        <time>2014-09-16T17:45:29Z</time>
      </trkpt>
      <trkpt lat="47.17745" lon="5.9916">
        <ele>377.4</ele>
        <time>2014-09-16T17:45:33Z</time>
      </trkpt>
      <trkpt lat="47.17742" lon="5.99148">
        <ele>378.1</ele>
        <time>2014-09-16T17:45:37Z</time>
      </trkpt>
      <trkpt lat="47.17739" lon="5.99137">
        <ele>378.4</ele>
        <time>2014-09-16T17:45:41Z</time>
      </trkpt>
      <trkpt lat="47.17735" lon="5.99123">
        <ele>378.6</ele>
        <time>2014-09-16T17:45:46Z</time>
      </trkpt>
      <trkpt lat="47.17732" lon="5.9911">
        <ele>379.2</ele>
        <time>2014-09-16T17:45:50Z</time>
      </trkpt>
      <trkpt lat="47.17728" lon="5.99096">
        <ele>379.7</ele>
        <time>2014-09-16T17:45:55Z</time>
      </trkpt>
      <trkpt lat="47.17726" lon="5.99082">
        <ele>380.3</ele>
        <time>2014-09-16T17:46:00Z</time>
      </trkpt>
      <trkpt lat="47.17724" lon="5.9907">
        <ele>379.5</ele>
        <time>2014-09-16T17:46:04Z</time>
      </trkpt>
      <trkpt lat="47.17722" lon="5.99057">
        <ele>378.8</ele>
        <time>2014-09-16T17:46:08Z</time>
      </trkpt>
      <trkpt lat="47.1772" lon="5.99045">
        <ele>377.8</ele>
        <time>2014-09-16T17:46:12Z</time>
      </trkpt>
      <trkpt lat="47.17717" lon="5.99031">
        <ele>377</ele>
        <time>2014-09-16T17:46:17Z</time>
      </trkpt>
      <trkpt lat="47.17715" lon="5.99018">
        <ele>376.2</ele>
        <time>2014-09-16T17:46:21Z</time>
      </trkpt>
      <trkpt lat="47.17713" lon="5.99005">
        <ele>375.4</ele>
        <time>2014-09-16T17:46:25Z</time>
      </trkpt>
      <trkpt lat="47.1771" lon="5.98992">
        <ele>374.5</ele>
        <time>2014-09-16T17:46:28Z</time>
      </trkpt>
      <trkpt lat="47.17708" lon="5.98979">
        <ele>373.7</ele>
        <time>2014-09-16T17:46:33Z</time>
      </trkpt>
      <trkpt lat="47.17706" lon="5.98964">
        <ele>372.6</ele>
        <time>2014-09-16T17:46:37Z</time>
      </trkpt>
      <trkpt lat="47.17705" lon="5.98952">
        <ele>371.9</ele>
        <time>2014-09-16T17:46:40Z</time>
      </trkpt>
      <trkpt lat="47.17702" lon="5.98939">
        <ele>371.2</ele>
        <time>2014-09-16T17:46:44Z</time>
      </trkpt>
      <trkpt lat="47.17698" lon="5.98925">
        <ele>371.7</ele>
        <time>2014-09-16T17:46:49Z</time>
      </trkpt>
      <trkpt lat="47.17696" lon="5.9891">
        <ele>372.3</ele>
        <time>2014-09-16T17:46:54Z</time>
      </trkpt>
      <trkpt lat="47.17693" lon="5.9889">
        <ele>372.8</ele>
        <time>2014-09-16T17:47:01Z</time>
      </trkpt>
      <trkpt lat="47.17691" lon="5.98877">
        <ele>373.2</ele>
        <time>2014-09-16T17:47:04Z</time>
      </trkpt>
      <trkpt lat="47.17688" lon="5.98865">
        <ele>373.5</ele>
        <time>2014-09-16T17:47:08Z</time>
      </trkpt>
      <trkpt lat="47.17685" lon="5.98853">
        <ele>374</ele>
        <time>2014-09-16T17:47:12Z</time>
      </trkpt>
      <trkpt lat="47.17683" lon="5.98839">
        <ele>374.5</ele>
        <time>2014-09-16T17:47:17Z</time>
      </trkpt>
      <trkpt lat="47.17681" lon="5.98824">
        <ele>374.9</ele>
        <time>2014-09-16T17:47:21Z</time>
      </trkpt>
      <trkpt lat="47.17678" lon="5.98811">
        <ele>375.4</ele>
        <time>2014-09-16T17:47:26Z</time>
      </trkpt>
      <trkpt lat="47.17676" lon="5.98797">
        <ele>375.5</ele>
        <time>2014-09-16T17:47:30Z</time>
      </trkpt>
      <trkpt lat="47.17674" lon="5.98784">
        <ele>375.5</ele>
        <time>2014-09-16T17:47:34Z</time>
      </trkpt>
      <trkpt lat="47.17674" lon="5.98771">
        <ele>375.7</ele>
        <time>2014-09-16T17:47:38Z</time>
      </trkpt>
      <trkpt lat="47.17672" lon="5.98759">
        <ele>375.9</ele>
        <time>2014-09-16T17:47:42Z</time>
      </trkpt>
      <trkpt lat="47.1767" lon="5.98746">
        <ele>376.1</ele>
        <time>2014-09-16T17:47:46Z</time>
      </trkpt>
      <trkpt lat="47.17668" lon="5.98734">
        <ele>376.3</ele>
        <time>2014-09-16T17:47:50Z</time>
      </trkpt>
      <trkpt lat="47.17666" lon="5.98721">
        <ele>376.5</ele>
        <time>2014-09-16T17:47:54Z</time>
      </trkpt>
      <trkpt lat="47.17664" lon="5.98706">
        <ele>376.5</ele>
        <time>2014-09-16T17:47:58Z</time>
      </trkpt>
      <trkpt lat="47.17661" lon="5.98693">
        <ele>376.7</ele>
        <time>2014-09-16T17:48:02Z</time>
      </trkpt>
      <trkpt lat="47.17659" lon="5.98681">
        <ele>376.9</ele>
        <time>2014-09-16T17:48:06Z</time>
      </trkpt>
      <trkpt lat="47.17658" lon="5.98667">
        <ele>377.1</ele>
        <time>2014-09-16T17:48:10Z</time>
      </trkpt>
      <trkpt lat="47.17657" lon="5.98653">
        <ele>377.3</ele>
        <time>2014-09-16T17:48:14Z</time>
      </trkpt>
      <trkpt lat="47.17655" lon="5.9864">
        <ele>377.5</ele>
        <time>2014-09-16T17:48:20Z</time>
      </trkpt>
      <trkpt lat="47.17653" lon="5.98627">
        <ele>377.5</ele>
        <time>2014-09-16T17:48:23Z</time>
      </trkpt>
      <trkpt lat="47.17652" lon="5.98613">
        <ele>377.7</ele>
        <time>2014-09-16T17:48:27Z</time>
      </trkpt>
      <trkpt lat="47.17652" lon="5.98597">
        <ele>377.9</ele>
        <time>2014-09-16T17:48:32Z</time>
      </trkpt>
      <trkpt lat="47.1765" lon="5.98584">
        <ele>378.1</ele>
        <time>2014-09-16T17:48:36Z</time>
      </trkpt>
      <trkpt lat="47.17648" lon="5.9857">
        <ele>378.3</ele>
        <time>2014-09-16T17:48:40Z</time>
      </trkpt>
      <trkpt lat="47.17647" lon="5.98557">
        <ele>378.5</ele>
        <time>2014-09-16T17:48:46Z</time>
      </trkpt>
      <trkpt lat="47.17647" lon="5.98544">
        <ele>378.5</ele>
        <time>2014-09-16T17:48:49Z</time>
      </trkpt>
      <trkpt lat="47.17647" lon="5.9853">
        <ele>378.6</ele>
        <time>2014-09-16T17:48:53Z</time>
      </trkpt>
      <trkpt lat="47.17647" lon="5.98517">
        <ele>378.8</ele>
        <time>2014-09-16T17:48:58Z</time>
      </trkpt>
      <trkpt lat="47.17646" lon="5.98504">
        <ele>379</ele>
        <time>2014-09-16T17:49:01Z</time>
      </trkpt>
      <trkpt lat="47.17647" lon="5.98491">
        <ele>379.2</ele>
        <time>2014-09-16T17:49:06Z</time>
      </trkpt>
      <trkpt lat="47.17647" lon="5.98478">
        <ele>379.4</ele>
        <time>2014-09-16T17:49:10Z</time>
      </trkpt>
      <trkpt lat="47.17648" lon="5.98463">
        <ele>379.5</ele>
        <time>2014-09-16T17:49:17Z</time>
      </trkpt>
      <trkpt lat="47.17649" lon="5.98451">
        <ele>379.5</ele>
        <time>2014-09-16T17:49:21Z</time>
      </trkpt>
      <trkpt lat="47.17649" lon="5.98439">
        <ele>380.1</ele>
        <time>2014-09-16T17:49:25Z</time>
      </trkpt>
      <trkpt lat="47.1765" lon="5.98424">
        <ele>380.6</ele>
        <time>2014-09-16T17:49:30Z</time>
      </trkpt>
      <trkpt lat="47.17648" lon="5.9841">
        <ele>381.2</ele>
        <time>2014-09-16T17:49:34Z</time>
      </trkpt>
      <trkpt lat="47.17646" lon="5.98396">
        <ele>380.5</ele>
        <time>2014-09-16T17:49:39Z</time>
      </trkpt>
      <trkpt lat="47.17645" lon="5.98383">
        <ele>379.9</ele>
        <time>2014-09-16T17:49:43Z</time>
      </trkpt>
      <trkpt lat="47.17644" lon="5.98369">
        <ele>379.2</ele>
        <time>2014-09-16T17:49:47Z</time>
      </trkpt>
      <trkpt lat="47.1764" lon="5.98356">
        <ele>379</ele>
        <time>2014-09-16T17:49:52Z</time>
      </trkpt>
      <trkpt lat="47.17636" lon="5.98344">
        <ele>378.8</ele>
        <time>2014-09-16T17:49:56Z</time>
      </trkpt>
      <trkpt lat="47.17631" lon="5.98329">
        <ele>378.6</ele>
        <time>2014-09-16T17:50:02Z</time>
      </trkpt>
      <trkpt lat="47.17628" lon="5.98316">
        <ele>378.5</ele>
        <time>2014-09-16T17:50:06Z</time>
      </trkpt>
      <trkpt lat="47.17624" lon="5.98305">
        <ele>378.3</ele>
        <time>2014-09-16T17:50:10Z</time>
      </trkpt>
      <trkpt lat="47.17619" lon="5.98294">
        <ele>377.6</ele>
        <time>2014-09-16T17:50:15Z</time>
      </trkpt>
      <trkpt lat="47.17613" lon="5.98282">
        <ele>377</ele>
        <time>2014-09-16T17:50:21Z</time>
      </trkpt>
      <trkpt lat="47.17609" lon="5.98271">
        <ele>376.6</ele>
        <time>2014-09-16T17:50:24Z</time>
      </trkpt>
      <trkpt lat="47.17604" lon="5.9826">
        <ele>377.5</ele>
        <time>2014-09-16T17:50:28Z</time>
      </trkpt>
      <trkpt lat="47.176" lon="5.9825">
        <ele>378.3</ele>
        <time>2014-09-16T17:50:32Z</time>
      </trkpt>
      <trkpt lat="47.17595" lon="5.9824">
        <ele>379.1</ele>
        <time>2014-09-16T17:50:36Z</time>
      </trkpt>
      <trkpt lat="47.1759" lon="5.98226">
        <ele>379.4</ele>
        <time>2014-09-16T17:50:42Z</time>
      </trkpt>
      <trkpt lat="47.17585" lon="5.98214">
        <ele>379.6</ele>
        <time>2014-09-16T17:50:45Z</time>
      </trkpt>
      <trkpt lat="47.1758" lon="5.98203">
        <ele>379.9</ele>
        <time>2014-09-16T17:50:50Z</time>
      </trkpt>
      <trkpt lat="47.17576" lon="5.98192">
        <ele>380.5</ele>
        <time>2014-09-16T17:50:54Z</time>
      </trkpt>
      <trkpt lat="47.17571" lon="5.98179">
        <ele>381.2</ele>
        <time>2014-09-16T17:50:58Z</time>
      </trkpt>
      <trkpt lat="47.17568" lon="5.98167">
        <ele>381.8</ele>
        <time>2014-09-16T17:51:02Z</time>
      </trkpt>
      <trkpt lat="47.17563" lon="5.98156">
        <ele>381.6</ele>
        <time>2014-09-16T17:51:06Z</time>
      </trkpt>
      <trkpt lat="47.1756" lon="5.98144">
        <ele>381.2</ele>
        <time>2014-09-16T17:51:10Z</time>
      </trkpt>
      <trkpt lat="47.17556" lon="5.98133">
        <ele>380.7</ele>
        <time>2014-09-16T17:51:14Z</time>
      </trkpt>
      <trkpt lat="47.17551" lon="5.9812">
        <ele>380.3</ele>
        <time>2014-09-16T17:51:19Z</time>
      </trkpt>
      <trkpt lat="47.17547" lon="5.98108">
        <ele>380.3</ele>
        <time>2014-09-16T17:51:23Z</time>
      </trkpt>
      <trkpt lat="47.1754" lon="5.98093">
        <ele>380.3</ele>
        <time>2014-09-16T17:51:29Z</time>
      </trkpt>
      <trkpt lat="47.17536" lon="5.98082">
        <ele>380.3</ele>
        <time>2014-09-16T17:51:34Z</time>
      </trkpt>
      <trkpt lat="47.17532" lon="5.98071">
        <ele>380.3</ele>
        <time>2014-09-16T17:51:39Z</time>
      </trkpt>
      <trkpt lat="47.17528" lon="5.9806">
        <ele>379.9</ele>
        <time>2014-09-16T17:51:44Z</time>
      </trkpt>
      <trkpt lat="47.17524" lon="5.98048">
        <ele>379.5</ele>
        <time>2014-09-16T17:51:49Z</time>
      </trkpt>
      <trkpt lat="47.17521" lon="5.98037">
        <ele>379.2</ele>
        <time>2014-09-16T17:51:54Z</time>
      </trkpt>
      <trkpt lat="47.17517" lon="5.98024">
        <ele>380.1</ele>
        <time>2014-09-16T17:51:59Z</time>
      </trkpt>
      <trkpt lat="47.17511" lon="5.98012">
        <ele>381</ele>
        <time>2014-09-16T17:52:04Z</time>
      </trkpt>
      <trkpt lat="47.17508" lon="5.97998">
        <ele>381.9</ele>
        <time>2014-09-16T17:52:09Z</time>
      </trkpt>
      <trkpt lat="47.17505" lon="5.97986">
        <ele>382.8</ele>
        <time>2014-09-16T17:52:14Z</time>
      </trkpt>
      <trkpt lat="47.17502" lon="5.97973">
        <ele>383.3</ele>
        <time>2014-09-16T17:52:19Z</time>
      </trkpt>
      <trkpt lat="47.17497" lon="5.9796">
        <ele>383.7</ele>
        <time>2014-09-16T17:52:24Z</time>
      </trkpt>
      <trkpt lat="47.17492" lon="5.9795">
        <ele>384.2</ele>
        <time>2014-09-16T17:52:28Z</time>
      </trkpt>
      <trkpt lat="47.17488" lon="5.97936">
        <ele>385.2</ele>
        <time>2014-09-16T17:52:33Z</time>
      </trkpt>
      <trkpt lat="47.17484" lon="5.97925">
        <ele>386.2</ele>
        <time>2014-09-16T17:52:37Z</time>
      </trkpt>
      <trkpt lat="47.17479" lon="5.97914">
        <ele>386.3</ele>
        <time>2014-09-16T17:52:41Z</time>
      </trkpt>
      <trkpt lat="47.17475" lon="5.97904">
        <ele>386.4</ele>
        <time>2014-09-16T17:52:46Z</time>
      </trkpt>
      <trkpt lat="47.1747" lon="5.97892">
        <ele>386</ele>
        <time>2014-09-16T17:52:50Z</time>
      </trkpt>
      <trkpt lat="47.17468" lon="5.97881">
        <ele>385.6</ele>
        <time>2014-09-16T17:52:54Z</time>
      </trkpt>
      <trkpt lat="47.17463" lon="5.97871">
        <ele>385.3</ele>
        <time>2014-09-16T17:52:58Z</time>
      </trkpt>
      <trkpt lat="47.17458" lon="5.97859">
        <ele>384.9</ele>
        <time>2014-09-16T17:53:03Z</time>
      </trkpt>
      <trkpt lat="47.17453" lon="5.97847">
        <ele>384.9</ele>
        <time>2014-09-16T17:53:08Z</time>
      </trkpt>
      <trkpt lat="47.17449" lon="5.97835">
        <ele>384.9</ele>
        <time>2014-09-16T17:53:13Z</time>
      </trkpt>
      <trkpt lat="47.17444" lon="5.97823">
        <ele>384.9</ele>
        <time>2014-09-16T17:53:18Z</time>
      </trkpt>
      <trkpt lat="47.1744" lon="5.9781">
        <ele>384.4</ele>
        <time>2014-09-16T17:53:23Z</time>
      </trkpt>
      <trkpt lat="47.17437" lon="5.97799">
        <ele>383.8</ele>
        <time>2014-09-16T17:53:28Z</time>
      </trkpt>
      <trkpt lat="47.17435" lon="5.97786">
        <ele>384.2</ele>
        <time>2014-09-16T17:53:33Z</time>
      </trkpt>
      <trkpt lat="47.17431" lon="5.97773">
        <ele>384.5</ele>
        <time>2014-09-16T17:53:37Z</time>
      </trkpt>
      <trkpt lat="47.17426" lon="5.97761">
        <ele>385.3</ele>
        <time>2014-09-16T17:53:42Z</time>
      </trkpt>
      <trkpt lat="47.17422" lon="5.97749">
        <ele>386</ele>
        <time>2014-09-16T17:53:46Z</time>
      </trkpt>
      <trkpt lat="47.17417" lon="5.97738">
        <ele>386.7</ele>
        <time>2014-09-16T17:53:50Z</time>
      </trkpt>
      <trkpt lat="47.17412" lon="5.97727">
        <ele>387.5</ele>
        <time>2014-09-16T17:53:54Z</time>
      </trkpt>
      <trkpt lat="47.17408" lon="5.97715">
        <ele>387.8</ele>
        <time>2014-09-16T17:53:59Z</time>
      </trkpt>
      <trkpt lat="47.17403" lon="5.97702">
        <ele>388.2</ele>
        <time>2014-09-16T17:54:05Z</time>
      </trkpt>
      <trkpt lat="47.174" lon="5.97691">
        <ele>388.5</ele>
        <time>2014-09-16T17:54:08Z</time>
      </trkpt>
      <trkpt lat="47.17395" lon="5.97678">
        <ele>388.6</ele>
        <time>2014-09-16T17:54:13Z</time>
      </trkpt>
      <trkpt lat="47.17391" lon="5.97665">
        <ele>388.7</ele>
        <time>2014-09-16T17:54:18Z</time>
      </trkpt>
      <trkpt lat="47.17388" lon="5.97651">
        <ele>388.8</ele>
        <time>2014-09-16T17:54:23Z</time>
      </trkpt>
      <trkpt lat="47.17385" lon="5.9764">
        <ele>388.9</ele>
        <time>2014-09-16T17:54:26Z</time>
      </trkpt>
      <trkpt lat="47.17382" lon="5.97628">
        <ele>388.6</ele>
        <time>2014-09-16T17:54:30Z</time>
      </trkpt>
      <trkpt lat="47.17377" lon="5.97618">
        <ele>388.4</ele>
        <time>2014-09-16T17:54:34Z</time>
      </trkpt>
      <trkpt lat="47.17374" lon="5.97605">
        <ele>388.5</ele>
        <time>2014-09-16T17:54:40Z</time>
      </trkpt>
      <trkpt lat="47.1737" lon="5.97592">
        <ele>388.5</ele>
        <time>2014-09-16T17:54:44Z</time>
      </trkpt>
      <trkpt lat="47.17365" lon="5.97578">
        <ele>388.6</ele>
        <time>2014-09-16T17:54:49Z</time>
      </trkpt>
      <trkpt lat="47.17361" lon="5.97567">
        <ele>388.7</ele>
        <time>2014-09-16T17:54:53Z</time>
      </trkpt>
      <trkpt lat="47.17356" lon="5.97556">
        <ele>388.8</ele>
        <time>2014-09-16T17:54:58Z</time>
      </trkpt>
      <trkpt lat="47.17355" lon="5.97542">
        <ele>389.2</ele>
        <time>2014-09-16T17:55:03Z</time>
      </trkpt>
      <trkpt lat="47.17353" lon="5.97528">
        <ele>389.3</ele>
        <time>2014-09-16T17:55:08Z</time>
      </trkpt>
      <trkpt lat="47.17352" lon="5.97514">
        <ele>389.4</ele>
        <time>2014-09-16T17:55:13Z</time>
      </trkpt>
      <trkpt lat="47.17353" lon="5.97501">
        <ele>389.5</ele>
        <time>2014-09-16T17:55:19Z</time>
      </trkpt>
      <trkpt lat="47.17356" lon="5.97488">
        <ele>389.5</ele>
        <time>2014-09-16T17:55:23Z</time>
      </trkpt>
      <trkpt lat="47.17357" lon="5.97475">
        <ele>389.8</ele>
        <time>2014-09-16T17:55:27Z</time>
      </trkpt>
      <trkpt lat="47.1736" lon="5.97462">
        <ele>389.7</ele>
        <time>2014-09-16T17:55:32Z</time>
      </trkpt>
      <trkpt lat="47.17363" lon="5.97451">
        <ele>389.6</ele>
        <time>2014-09-16T17:55:36Z</time>
      </trkpt>
      <trkpt lat="47.17367" lon="5.9744">
        <ele>389.5</ele>
        <time>2014-09-16T17:55:40Z</time>
      </trkpt>
      <trkpt lat="47.17373" lon="5.97428">
        <ele>389.5</ele>
        <time>2014-09-16T17:55:45Z</time>
      </trkpt>
      <trkpt lat="47.17381" lon="5.9742">
        <ele>388.4</ele>
        <time>2014-09-16T17:55:50Z</time>
      </trkpt>
      <trkpt lat="47.17389" lon="5.97412">
        <ele>387.3</ele>
        <time>2014-09-16T17:55:53Z</time>
      </trkpt>
      <trkpt lat="47.17397" lon="5.97406">
        <ele>386.5</ele>
        <time>2014-09-16T17:55:56Z</time>
      </trkpt>
      <trkpt lat="47.17405" lon="5.974">
        <ele>385.6</ele>
        <time>2014-09-16T17:55:59Z</time>
      </trkpt>
      <trkpt lat="47.17413" lon="5.97392">
        <ele>384.8</ele>
        <time>2014-09-16T17:56:03Z</time>
      </trkpt>
      <trkpt lat="47.1742" lon="5.97379">
        <ele>383.7</ele>
        <time>2014-09-16T17:56:07Z</time>
      </trkpt>
      <trkpt lat="47.17426" lon="5.97369">
        <ele>382.5</ele>
        <time>2014-09-16T17:56:11Z</time>
      </trkpt>
      <trkpt lat="47.17435" lon="5.97365">
        <ele>381.2</ele>
        <time>2014-09-16T17:56:16Z</time>
      </trkpt>
      <trkpt lat="47.17444" lon="5.9736">
        <ele>379.9</ele>
        <time>2014-09-16T17:56:22Z</time>
      </trkpt>
      <trkpt lat="47.17451" lon="5.97354">
        <ele>378.6</ele>
        <time>2014-09-16T17:56:26Z</time>
      </trkpt>
      <trkpt lat="47.1746" lon="5.97347">
        <ele>377.4</ele>
        <time>2014-09-16T17:56:30Z</time>
      </trkpt>
      <trkpt lat="47.17468" lon="5.97342">
        <ele>377.1</ele>
        <time>2014-09-16T17:56:33Z</time>
      </trkpt>
      <trkpt lat="47.17478" lon="5.97339">
        <ele>376.8</ele>
        <time>2014-09-16T17:56:38Z</time>
      </trkpt>
      <trkpt lat="47.17488" lon="5.97336">
        <ele>376.5</ele>
        <time>2014-09-16T17:56:42Z</time>
      </trkpt>
      <trkpt lat="47.17497" lon="5.97333">
        <ele>375.9</ele>
        <time>2014-09-16T17:56:47Z</time>
      </trkpt>
      <trkpt lat="47.17507" lon="5.97331">
        <ele>375.3</ele>
        <time>2014-09-16T17:56:50Z</time>
      </trkpt>
      <trkpt lat="47.17516" lon="5.97329">
        <ele>374.6</ele>
        <time>2014-09-16T17:56:54Z</time>
      </trkpt>
      <trkpt lat="47.17526" lon="5.97326">
        <ele>374</ele>
        <time>2014-09-16T17:56:58Z</time>
      </trkpt>
      <trkpt lat="47.17534" lon="5.97321">
        <ele>373.4</ele>
        <time>2014-09-16T17:57:01Z</time>
      </trkpt>
      <trkpt lat="47.17542" lon="5.97313">
        <ele>372.7</ele>
        <time>2014-09-16T17:57:06Z</time>
      </trkpt>
      <trkpt lat="47.17551" lon="5.97305">
        <ele>372.1</ele>
        <time>2014-09-16T17:57:09Z</time>
      </trkpt>
      <trkpt lat="47.17559" lon="5.97298">
        <ele>371.5</ele>
        <time>2014-09-16T17:57:13Z</time>
      </trkpt>
      <trkpt lat="47.17567" lon="5.97289">
        <ele>370.8</ele>
        <time>2014-09-16T17:57:17Z</time>
      </trkpt>
      <trkpt lat="47.17575" lon="5.9728">
        <ele>370.2</ele>
        <time>2014-09-16T17:57:21Z</time>
      </trkpt>
      <trkpt lat="47.17581" lon="5.9727">
        <ele>369.5</ele>
        <time>2014-09-16T17:57:25Z</time>
      </trkpt>
      <trkpt lat="47.17587" lon="5.9726">
        <ele>369.1</ele>
        <time>2014-09-16T17:57:29Z</time>
      </trkpt>
      <trkpt lat="47.17592" lon="5.97251">
        <ele>368.6</ele>
        <time>2014-09-16T17:57:32Z</time>
      </trkpt>
      <trkpt lat="47.17598" lon="5.9724">
        <ele>368.5</ele>
        <time>2014-09-16T17:57:38Z</time>
      </trkpt>
      <trkpt lat="47.17604" lon="5.97229">
        <ele>368.3</ele>
        <time>2014-09-16T17:57:41Z</time>
      </trkpt>
      <trkpt lat="47.17608" lon="5.97218">
        <ele>368.1</ele>
        <time>2014-09-16T17:57:44Z</time>
      </trkpt>
      <trkpt lat="47.17611" lon="5.97205">
        <ele>367.9</ele>
        <time>2014-09-16T17:57:48Z</time>
      </trkpt>
      <trkpt lat="47.17614" lon="5.97192">
        <ele>367.7</ele>
        <time>2014-09-16T17:57:52Z</time>
      </trkpt>
      <trkpt lat="47.17619" lon="5.9718">
        <ele>367.6</ele>
        <time>2014-09-16T17:57:56Z</time>
      </trkpt>
      <trkpt lat="47.17622" lon="5.97165">
        <ele>367.5</ele>
        <time>2014-09-16T17:58:00Z</time>
      </trkpt>
      <trkpt lat="47.17624" lon="5.97153">
        <ele>367.5</ele>
        <time>2014-09-16T17:58:04Z</time>
      </trkpt>
      <trkpt lat="47.17627" lon="5.9714">
        <ele>367.4</ele>
        <time>2014-09-16T17:58:08Z</time>
      </trkpt>
      <trkpt lat="47.17629" lon="5.97127">
        <ele>367.5</ele>
        <time>2014-09-16T17:58:14Z</time>
      </trkpt>
      <trkpt lat="47.17633" lon="5.97112">
        <ele>367.5</ele>
        <time>2014-09-16T17:58:18Z</time>
      </trkpt>
      <trkpt lat="47.17635" lon="5.97101">
        <ele>367.6</ele>
        <time>2014-09-16T17:58:21Z</time>
      </trkpt>
      <trkpt lat="47.17637" lon="5.97089">
        <ele>367.7</ele>
        <time>2014-09-16T17:58:25Z</time>
      </trkpt>
      <trkpt lat="47.17638" lon="5.97076">
        <ele>367.8</ele>
        <time>2014-09-16T17:58:29Z</time>
      </trkpt>
      <trkpt lat="47.1764" lon="5.97062">
        <ele>367.9</ele>
        <time>2014-09-16T17:58:34Z</time>
      </trkpt>
      <trkpt lat="47.17642" lon="5.97048">
        <ele>368</ele>
        <time>2014-09-16T17:58:38Z</time>
      </trkpt>
      <trkpt lat="47.17645" lon="5.97035">
        <ele>368</ele>
        <time>2014-09-16T17:58:43Z</time>
      </trkpt>
      <trkpt lat="47.17649" lon="5.97024">
        <ele>368.1</ele>
        <time>2014-09-16T17:58:46Z</time>
      </trkpt>
      <trkpt lat="47.17653" lon="5.97011">
        <ele>368.2</ele>
        <time>2014-09-16T17:58:50Z</time>
      </trkpt>
      <trkpt lat="47.17656" lon="5.96998">
        <ele>368.3</ele>
        <time>2014-09-16T17:58:55Z</time>
      </trkpt>
      <trkpt lat="47.17659" lon="5.96983">
        <ele>368.4</ele>
        <time>2014-09-16T17:59:01Z</time>
      </trkpt>
      <trkpt lat="47.17662" lon="5.9697">
        <ele>368.5</ele>
        <time>2014-09-16T17:59:04Z</time>
      </trkpt>
      <trkpt lat="47.17666" lon="5.96958">
        <ele>368.5</ele>
        <time>2014-09-16T17:59:08Z</time>
      </trkpt>
      <trkpt lat="47.17669" lon="5.96945">
        <ele>368.9</ele>
        <time>2014-09-16T17:59:13Z</time>
      </trkpt>
      <trkpt lat="47.17672" lon="5.96932">
        <ele>369.3</ele>
        <time>2014-09-16T17:59:17Z</time>
      </trkpt>
      <trkpt lat="47.17675" lon="5.96921">
        <ele>369.6</ele>
        <time>2014-09-16T17:59:21Z</time>
      </trkpt>
      <trkpt lat="47.17677" lon="5.96907">
        <ele>370</ele>
        <time>2014-09-16T17:59:26Z</time>
      </trkpt>
      <trkpt lat="47.17679" lon="5.96893">
        <ele>370.4</ele>
        <time>2014-09-16T17:59:30Z</time>
      </trkpt>
      <trkpt lat="47.17679" lon="5.96878">
        <ele>370.6</ele>
        <time>2014-09-16T17:59:35Z</time>
      </trkpt>
      <trkpt lat="47.17681" lon="5.96864">
        <ele>370.9</ele>
        <time>2014-09-16T17:59:40Z</time>
      </trkpt>
      <trkpt lat="47.17681" lon="5.96851">
        <ele>371.2</ele>
        <time>2014-09-16T17:59:44Z</time>
      </trkpt>
      <trkpt lat="47.17683" lon="5.96837">
        <ele>371.5</ele>
        <time>2014-09-16T17:59:48Z</time>
      </trkpt>
      <trkpt lat="47.17685" lon="5.96824">
        <ele>371.7</ele>
        <time>2014-09-16T17:59:53Z</time>
      </trkpt>
      <trkpt lat="47.17687" lon="5.9681">
        <ele>372</ele>
        <time>2014-09-16T17:59:58Z</time>
      </trkpt>
      <trkpt lat="47.17688" lon="5.96794">
        <ele>372</ele>
        <time>2014-09-16T18:00:01Z</time>
      </trkpt>
      <trkpt lat="47.17692" lon="5.96782">
        <ele>372</ele>
        <time>2014-09-16T18:00:05Z</time>
      </trkpt>
      <trkpt lat="47.17695" lon="5.9677">
        <ele>371.6</ele>
        <time>2014-09-16T18:00:08Z</time>
      </trkpt>
      <trkpt lat="47.17696" lon="5.96756">
        <ele>371.3</ele>
        <time>2014-09-16T18:00:12Z</time>
      </trkpt>
      <trkpt lat="47.17697" lon="5.96742">
        <ele>370.9</ele>
        <time>2014-09-16T18:00:16Z</time>
      </trkpt>
      <trkpt lat="47.17699" lon="5.96728">
        <ele>370.5</ele>
        <time>2014-09-16T18:00:20Z</time>
      </trkpt>
      <trkpt lat="47.17702" lon="5.96713">
        <ele>370.2</ele>
        <time>2014-09-16T18:00:24Z</time>
      </trkpt>
      <trkpt lat="47.17703" lon="5.96698">
        <ele>369.8</ele>
        <time>2014-09-16T18:00:28Z</time>
      </trkpt>
      <trkpt lat="47.17705" lon="5.96685">
        <ele>368.3</ele>
        <time>2014-09-16T18:00:32Z</time>
      </trkpt>
      <trkpt lat="47.17707" lon="5.96673">
        <ele>366.7</ele>
        <time>2014-09-16T18:00:35Z</time>
      </trkpt>
      <trkpt lat="47.17709" lon="5.96659">
        <ele>365.2</ele>
        <time>2014-09-16T18:00:39Z</time>
      </trkpt>
      <trkpt lat="47.17711" lon="5.96644">
        <ele>364.5</ele>
        <time>2014-09-16T18:00:43Z</time>
      </trkpt>
      <trkpt lat="47.17713" lon="5.96631">
        <ele>363.7</ele>
        <time>2014-09-16T18:00:50Z</time>
      </trkpt>
      <trkpt lat="47.17714" lon="5.96617">
        <ele>363.4</ele>
        <time>2014-09-16T18:00:51Z</time>
      </trkpt>
      <trkpt lat="47.17714" lon="5.96603">
        <ele>362.4</ele>
        <time>2014-09-16T18:00:55Z</time>
      </trkpt>
      <trkpt lat="47.17713" lon="5.96589">
        <ele>361.4</ele>
        <time>2014-09-16T18:00:59Z</time>
      </trkpt>
      <trkpt lat="47.17711" lon="5.96578">
        <ele>360.4</ele>
        <time>2014-09-16T18:01:02Z</time>
      </trkpt>
      <trkpt lat="47.17709" lon="5.96564">
        <ele>359.4</ele>
        <time>2014-09-16T18:01:06Z</time>
      </trkpt>
      <trkpt lat="47.17704" lon="5.9655">
        <ele>358.4</ele>
        <time>2014-09-16T18:01:10Z</time>
      </trkpt>
      <trkpt lat="47.17699" lon="5.96541">
        <ele>358.5</ele>
        <time>2014-09-16T18:01:13Z</time>
      </trkpt>
      <trkpt lat="47.17691" lon="5.96532">
        <ele>358.7</ele>
        <time>2014-09-16T18:01:17Z</time>
      </trkpt>
      <trkpt lat="47.17683" lon="5.96524">
        <ele>358.9</ele>
        <time>2014-09-16T18:01:21Z</time>
      </trkpt>
      <trkpt lat="47.17674" lon="5.96515">
        <ele>358.3</ele>
        <time>2014-09-16T18:01:25Z</time>
      </trkpt>
      <trkpt lat="47.17666" lon="5.96506">
        <ele>358.3</ele>
        <time>2014-09-16T18:01:29Z</time>
      </trkpt>
      <trkpt lat="47.17656" lon="5.96498">
        <ele>357.9</ele>
        <time>2014-09-16T18:01:33Z</time>
      </trkpt>
      <trkpt lat="47.17648" lon="5.96494">
        <ele>358.2</ele>
        <time>2014-09-16T18:01:37Z</time>
      </trkpt>
      <trkpt lat="47.1764" lon="5.96488">
        <ele>358.5</ele>
        <time>2014-09-16T18:01:41Z</time>
      </trkpt>
      <trkpt lat="47.17634" lon="5.96477">
        <ele>358.7</ele>
        <time>2014-09-16T18:01:46Z</time>
      </trkpt>
      <trkpt lat="47.17631" lon="5.96466">
        <ele>359</ele>
        <time>2014-09-16T18:01:49Z</time>
      </trkpt>
      <trkpt lat="47.17623" lon="5.96459">
        <ele>358.5</ele>
        <time>2014-09-16T18:01:53Z</time>
      </trkpt>
      <trkpt lat="47.17617" lon="5.96448">
        <ele>357.9</ele>
        <time>2014-09-16T18:01:57Z</time>
      </trkpt>
      <trkpt lat="47.17617" lon="5.96435">
        <ele>356.8</ele>
        <time>2014-09-16T18:02:02Z</time>
      </trkpt>
      <trkpt lat="47.17623" lon="5.96425">
        <ele>356.8</ele>
        <time>2014-09-16T18:02:06Z</time>
      </trkpt>
      <trkpt lat="47.17629" lon="5.96418">
        <ele>356.8</ele>
        <time>2014-09-16T18:02:09Z</time>
      </trkpt>
      <trkpt lat="47.17635" lon="5.96407">
        <ele>356.2</ele>
        <time>2014-09-16T18:02:14Z</time>
      </trkpt>
      <trkpt lat="47.17635" lon="5.96391">
        <ele>355.9</ele>
        <time>2014-09-16T18:02:18Z</time>
      </trkpt>
      <trkpt lat="47.17631" lon="5.96378">
        <ele>355.6</ele>
        <time>2014-09-16T18:02:21Z</time>
      </trkpt>
      <trkpt lat="47.17627" lon="5.96366">
        <ele>355.4</ele>
        <time>2014-09-16T18:02:26Z</time>
      </trkpt>
      <trkpt lat="47.17625" lon="5.96354">
        <ele>355.3</ele>
        <time>2014-09-16T18:02:29Z</time>
      </trkpt>
      <trkpt lat="47.17621" lon="5.96341">
        <ele>355.2</ele>
        <time>2014-09-16T18:02:33Z</time>
      </trkpt>
      <trkpt lat="47.17619" lon="5.96329">
        <ele>354.5</ele>
        <time>2014-09-16T18:02:37Z</time>
      </trkpt>
      <trkpt lat="47.17619" lon="5.96314">
        <ele>353.9</ele>
        <time>2014-09-16T18:02:41Z</time>
      </trkpt>
      <trkpt lat="47.1762" lon="5.96299">
        <ele>353.8</ele>
        <time>2014-09-16T18:02:45Z</time>
      </trkpt>
      <trkpt lat="47.17625" lon="5.96287">
        <ele>352.6</ele>
        <time>2014-09-16T18:02:49Z</time>
      </trkpt>
      <trkpt lat="47.17631" lon="5.96277">
        <ele>351.5</ele>
        <time>2014-09-16T18:02:53Z</time>
      </trkpt>
      <trkpt lat="47.17637" lon="5.96268">
        <ele>349.8</ele>
        <time>2014-09-16T18:02:57Z</time>
      </trkpt>
      <trkpt lat="47.17645" lon="5.96258">
        <ele>348.2</ele>
        <time>2014-09-16T18:03:01Z</time>
      </trkpt>
      <trkpt lat="47.17651" lon="5.96245">
        <ele>346.5</ele>
        <time>2014-09-16T18:03:05Z</time>
      </trkpt>
      <trkpt lat="47.17657" lon="5.96232">
        <ele>344.9</ele>
        <time>2014-09-16T18:03:09Z</time>
      </trkpt>
      <trkpt lat="47.17659" lon="5.96218">
        <ele>343.1</ele>
        <time>2014-09-16T18:03:13Z</time>
      </trkpt>
      <trkpt lat="47.17659" lon="5.96205">
        <ele>342.5</ele>
        <time>2014-09-16T18:03:17Z</time>
      </trkpt>
      <trkpt lat="47.17658" lon="5.9619">
        <ele>343.2</ele>
        <time>2014-09-16T18:03:22Z</time>
      </trkpt>
      <trkpt lat="47.17652" lon="5.9618">
        <ele>343.9</ele>
        <time>2014-09-16T18:03:24Z</time>
      </trkpt>
      <trkpt lat="47.17644" lon="5.96171">
        <ele>344.6</ele>
        <time>2014-09-16T18:03:27Z</time>
      </trkpt>
      <trkpt lat="47.17635" lon="5.96163">
        <ele>345.4</ele>
        <time>2014-09-16T18:03:30Z</time>
      </trkpt>
      <trkpt lat="47.17625" lon="5.96156">
        <ele>346.1</ele>
        <time>2014-09-16T18:03:33Z</time>
      </trkpt>
      <trkpt lat="47.17617" lon="5.96153">
        <ele>347.3</ele>
        <time>2014-09-16T18:03:36Z</time>
      </trkpt>
      <trkpt lat="47.17607" lon="5.96148">
        <ele>348.5</ele>
        <time>2014-09-16T18:03:40Z</time>
      </trkpt>
      <trkpt lat="47.17599" lon="5.96145">
        <ele>349.6</ele>
        <time>2014-09-16T18:03:43Z</time>
      </trkpt>
      <trkpt lat="47.1759" lon="5.96144">
        <ele>350.4</ele>
        <time>2014-09-16T18:03:46Z</time>
      </trkpt>
      <trkpt lat="47.17579" lon="5.96142">
        <ele>351.1</ele>
        <time>2014-09-16T18:03:50Z</time>
      </trkpt>
      <trkpt lat="47.17569" lon="5.96141">
        <ele>350.6</ele>
        <time>2014-09-16T18:03:54Z</time>
      </trkpt>
      <trkpt lat="47.1756" lon="5.9614">
        <ele>350.2</ele>
        <time>2014-09-16T18:03:58Z</time>
      </trkpt>
      <trkpt lat="47.1755" lon="5.9614">
        <ele>349.7</ele>
        <time>2014-09-16T18:04:02Z</time>
      </trkpt>
      <trkpt lat="47.17541" lon="5.9614">
        <ele>349.3</ele>
        <time>2014-09-16T18:04:06Z</time>
      </trkpt>
      <trkpt lat="47.17523" lon="5.96139">
        <ele>348.4</ele>
        <time>2014-09-16T18:04:12Z</time>
      </trkpt>
      <trkpt lat="47.17514" lon="5.96138">
        <ele>347.9</ele>
        <time>2014-09-16T18:04:16Z</time>
      </trkpt>
      <trkpt lat="47.17506" lon="5.96139">
        <ele>348.2</ele>
        <time>2014-09-16T18:04:20Z</time>
      </trkpt>
      <trkpt lat="47.17496" lon="5.9614">
        <ele>348.5</ele>
        <time>2014-09-16T18:04:25Z</time>
      </trkpt>
      <trkpt lat="47.17486" lon="5.96141">
        <ele>348.1</ele>
        <time>2014-09-16T18:04:28Z</time>
      </trkpt>
      <trkpt lat="47.17477" lon="5.96141">
        <ele>347.7</ele>
        <time>2014-09-16T18:04:32Z</time>
      </trkpt>
      <trkpt lat="47.17468" lon="5.96139">
        <ele>347.4</ele>
        <time>2014-09-16T18:04:36Z</time>
      </trkpt>
      <trkpt lat="47.17459" lon="5.96139">
        <ele>347</ele>
        <time>2014-09-16T18:04:40Z</time>
      </trkpt>
      <trkpt lat="47.17451" lon="5.96136">
        <ele>346.6</ele>
        <time>2014-09-16T18:04:45Z</time>
      </trkpt>
      <trkpt lat="47.17442" lon="5.9613">
        <ele>346.3</ele>
        <time>2014-09-16T18:04:49Z</time>
      </trkpt>
      <trkpt lat="47.17437" lon="5.9612">
        <ele>345.4</ele>
        <time>2014-09-16T18:04:52Z</time>
      </trkpt>
      <trkpt lat="47.17433" lon="5.96107">
        <ele>344.5</ele>
        <time>2014-09-16T18:04:56Z</time>
      </trkpt>
      <trkpt lat="47.17431" lon="5.96093">
        <ele>343.5</ele>
        <time>2014-09-16T18:05:01Z</time>
      </trkpt>
      <trkpt lat="47.1743" lon="5.96076">
        <ele>341.9</ele>
        <time>2014-09-16T18:05:04Z</time>
      </trkpt>
      <trkpt lat="47.17434" lon="5.96063">
        <ele>340.3</ele>
        <time>2014-09-16T18:05:09Z</time>
      </trkpt>
      <trkpt lat="47.17439" lon="5.96052">
        <ele>339.7</ele>
        <time>2014-09-16T18:05:12Z</time>
      </trkpt>
      <trkpt lat="47.17445" lon="5.96041">
        <ele>339.2</ele>
        <time>2014-09-16T18:05:15Z</time>
      </trkpt>
      <trkpt lat="47.1745" lon="5.9603">
        <ele>337.5</ele>
        <time>2014-09-16T18:05:18Z</time>
      </trkpt>
      <trkpt lat="47.17454" lon="5.96015">
        <ele>335.7</ele>
        <time>2014-09-16T18:05:22Z</time>
      </trkpt>
      <trkpt lat="47.17456" lon="5.96004">
        <ele>334</ele>
        <time>2014-09-16T18:05:27Z</time>
      </trkpt>
      <trkpt lat="47.17455" lon="5.9599">
        <ele>332.3</ele>
        <time>2014-09-16T18:05:30Z</time>
      </trkpt>
      <trkpt lat="47.17453" lon="5.95978">
        <ele>331.1</ele>
        <time>2014-09-16T18:05:33Z</time>
      </trkpt>
      <trkpt lat="47.17446" lon="5.95966">
        <ele>329.9</ele>
        <time>2014-09-16T18:05:37Z</time>
      </trkpt>
      <trkpt lat="47.1744" lon="5.95957">
        <ele>328.7</ele>
        <time>2014-09-16T18:05:40Z</time>
      </trkpt>
      <trkpt lat="47.17433" lon="5.95949">
        <ele>327.5</ele>
        <time>2014-09-16T18:05:43Z</time>
      </trkpt>
      <trkpt lat="47.17424" lon="5.95941">
        <ele>326.4</ele>
        <time>2014-09-16T18:05:46Z</time>
      </trkpt>
      <trkpt lat="47.17416" lon="5.95937">
        <ele>326.1</ele>
        <time>2014-09-16T18:05:49Z</time>
      </trkpt>
      <trkpt lat="47.17406" lon="5.95934">
        <ele>325.8</ele>
        <time>2014-09-16T18:05:53Z</time>
      </trkpt>
      <trkpt lat="47.17396" lon="5.95932">
        <ele>326.7</ele>
        <time>2014-09-16T18:05:57Z</time>
      </trkpt>
      <trkpt lat="47.17387" lon="5.95931">
        <ele>327.6</ele>
        <time>2014-09-16T18:06:01Z</time>
      </trkpt>
      <trkpt lat="47.17379" lon="5.9593">
        <ele>328.5</ele>
        <time>2014-09-16T18:06:04Z</time>
      </trkpt>
      <trkpt lat="47.1737" lon="5.95928">
        <ele>329.5</ele>
        <time>2014-09-16T18:06:07Z</time>
      </trkpt>
      <trkpt lat="47.17361" lon="5.95928">
        <ele>330.4</ele>
        <time>2014-09-16T18:06:10Z</time>
      </trkpt>
      <trkpt lat="47.17353" lon="5.95927">
        <ele>331.3</ele>
        <time>2014-09-16T18:06:14Z</time>
      </trkpt>
      <trkpt lat="47.17344" lon="5.95925">
        <ele>332.2</ele>
        <time>2014-09-16T18:06:18Z</time>
      </trkpt>
      <trkpt lat="47.17334" lon="5.95921">
        <ele>331.5</ele>
        <time>2014-09-16T18:06:22Z</time>
      </trkpt>
      <trkpt lat="47.17326" lon="5.95915">
        <ele>330.7</ele>
        <time>2014-09-16T18:06:27Z</time>
      </trkpt>
      <trkpt lat="47.17317" lon="5.95909">
        <ele>330.9</ele>
        <time>2014-09-16T18:06:31Z</time>
      </trkpt>
      <trkpt lat="47.1731" lon="5.95901">
        <ele>331.1</ele>
        <time>2014-09-16T18:06:35Z</time>
      </trkpt>
      <trkpt lat="47.17306" lon="5.9589">
        <ele>331.3</ele>
        <time>2014-09-16T18:06:40Z</time>
      </trkpt>
      <trkpt lat="47.17302" lon="5.95877">
        <ele>331.5</ele>
        <time>2014-09-16T18:06:44Z</time>
      </trkpt>
      <trkpt lat="47.17299" lon="5.95866">
        <ele>331.6</ele>
        <time>2014-09-16T18:06:48Z</time>
      </trkpt>
      <trkpt lat="47.17293" lon="5.95853">
        <ele>331.8</ele>
        <time>2014-09-16T18:06:52Z</time>
      </trkpt>
      <trkpt lat="47.17288" lon="5.95843">
        <ele>332</ele>
        <time>2014-09-16T18:06:55Z</time>
      </trkpt>
      <trkpt lat="47.17281" lon="5.95832">
        <ele>330.5</ele>
        <time>2014-09-16T18:06:59Z</time>
      </trkpt>
      <trkpt lat="47.17275" lon="5.95822">
        <ele>329.1</ele>
        <time>2014-09-16T18:07:02Z</time>
      </trkpt>
      <trkpt lat="47.17268" lon="5.95813">
        <ele>329.3</ele>
        <time>2014-09-16T18:07:06Z</time>
      </trkpt>
      <trkpt lat="47.17259" lon="5.95807">
        <ele>329.5</ele>
        <time>2014-09-16T18:07:10Z</time>
      </trkpt>
      <trkpt lat="47.17251" lon="5.95799">
        <ele>328.7</ele>
        <time>2014-09-16T18:07:14Z</time>
      </trkpt>
      <trkpt lat="47.17242" lon="5.95791">
        <ele>328</ele>
        <time>2014-09-16T18:07:18Z</time>
      </trkpt>
      <trkpt lat="47.17234" lon="5.95783">
        <ele>327.3</ele>
        <time>2014-09-16T18:07:23Z</time>
      </trkpt>
      <trkpt lat="47.17225" lon="5.95778">
        <ele>326.5</ele>
        <time>2014-09-16T18:07:26Z</time>
      </trkpt>
      <trkpt lat="47.17216" lon="5.95772">
        <ele>325.8</ele>
        <time>2014-09-16T18:07:31Z</time>
      </trkpt>
      <trkpt lat="47.17208" lon="5.95767">
        <ele>325.1</ele>
        <time>2014-09-16T18:07:35Z</time>
      </trkpt>
      <trkpt lat="47.172" lon="5.95759">
        <ele>324.4</ele>
        <time>2014-09-16T18:07:39Z</time>
      </trkpt>
      <trkpt lat="47.17191" lon="5.95753">
        <ele>324.2</ele>
        <time>2014-09-16T18:07:43Z</time>
      </trkpt>
      <trkpt lat="47.17182" lon="5.95747">
        <ele>324</ele>
        <time>2014-09-16T18:07:47Z</time>
      </trkpt>
      <trkpt lat="47.17174" lon="5.9574">
        <ele>323.8</ele>
        <time>2014-09-16T18:07:52Z</time>
      </trkpt>
      <trkpt lat="47.17166" lon="5.9573">
        <ele>323.6</ele>
        <time>2014-09-16T18:07:57Z</time>
      </trkpt>
      <trkpt lat="47.1716" lon="5.95719">
        <ele>322.5</ele>
        <time>2014-09-16T18:08:01Z</time>
      </trkpt>
      <trkpt lat="47.17154" lon="5.95709">
        <ele>321.5</ele>
        <time>2014-09-16T18:08:05Z</time>
      </trkpt>
      <trkpt lat="47.17149" lon="5.957">
        <ele>320.8</ele>
        <time>2014-09-16T18:08:09Z</time>
      </trkpt>
      <trkpt lat="47.17143" lon="5.95689">
        <ele>320.2</ele>
        <time>2014-09-16T18:08:14Z</time>
      </trkpt>
      <trkpt lat="47.17139" lon="5.95677">
        <ele>319.5</ele>
        <time>2014-09-16T18:08:18Z</time>
      </trkpt>
      <trkpt lat="47.17136" lon="5.95666">
        <ele>318.9</ele>
        <time>2014-09-16T18:08:23Z</time>
      </trkpt>
      <trkpt lat="47.17133" lon="5.95652">
        <ele>318.3</ele>
        <time>2014-09-16T18:08:26Z</time>
      </trkpt>
      <trkpt lat="47.17131" lon="5.95638">
        <ele>318.7</ele>
        <time>2014-09-16T18:08:30Z</time>
      </trkpt>
      <trkpt lat="47.17129" lon="5.95624">
        <ele>318.3</ele>
        <time>2014-09-16T18:08:34Z</time>
      </trkpt>
      <trkpt lat="47.17128" lon="5.9561">
        <ele>317.5</ele>
        <time>2014-09-16T18:08:38Z</time>
      </trkpt>
      <trkpt lat="47.17129" lon="5.95597">
        <ele>316.8</ele>
        <time>2014-09-16T18:08:42Z</time>
      </trkpt>
      <trkpt lat="47.17129" lon="5.95585">
        <ele>316.1</ele>
        <time>2014-09-16T18:08:46Z</time>
      </trkpt>
      <trkpt lat="47.17131" lon="5.95572">
        <ele>315.4</ele>
        <time>2014-09-16T18:08:51Z</time>
      </trkpt>
      <trkpt lat="47.17132" lon="5.95559">
        <ele>314.2</ele>
        <time>2014-09-16T18:08:54Z</time>
      </trkpt>
      <trkpt lat="47.17134" lon="5.95545">
        <ele>313</ele>
        <time>2014-09-16T18:08:58Z</time>
      </trkpt>
      <trkpt lat="47.17135" lon="5.95531">
        <ele>311.8</ele>
        <time>2014-09-16T18:09:02Z</time>
      </trkpt>
      <trkpt lat="47.17139" lon="5.95519">
        <ele>310.6</ele>
        <time>2014-09-16T18:09:06Z</time>
      </trkpt>
      <trkpt lat="47.17142" lon="5.95505">
        <ele>309.5</ele>
        <time>2014-09-16T18:09:11Z</time>
      </trkpt>
      <trkpt lat="47.17145" lon="5.95493">
        <ele>308.3</ele>
        <time>2014-09-16T18:09:15Z</time>
      </trkpt>
      <trkpt lat="47.17148" lon="5.95481">
        <ele>308</ele>
        <time>2014-09-16T18:09:19Z</time>
      </trkpt>
      <trkpt lat="47.17151" lon="5.95469">
        <ele>308</ele>
        <time>2014-09-16T18:09:23Z</time>
      </trkpt>
      <trkpt lat="47.17153" lon="5.95456">
        <ele>308</ele>
        <time>2014-09-16T18:09:27Z</time>
      </trkpt>
      <trkpt lat="47.17156" lon="5.95441">
        <ele>308.5</ele>
        <time>2014-09-16T18:09:31Z</time>
      </trkpt>
      <trkpt lat="47.17158" lon="5.95428">
        <ele>308.9</ele>
        <time>2014-09-16T18:09:35Z</time>
      </trkpt>
      <trkpt lat="47.17159" lon="5.95416">
        <ele>309.4</ele>
        <time>2014-09-16T18:09:39Z</time>
      </trkpt>
      <trkpt lat="47.17162" lon="5.95401">
        <ele>309.8</ele>
        <time>2014-09-16T18:09:45Z</time>
      </trkpt>
      <trkpt lat="47.17166" lon="5.95389">
        <ele>310.3</ele>
        <time>2014-09-16T18:09:48Z</time>
      </trkpt>
      <trkpt lat="47.17169" lon="5.95377">
        <ele>310.7</ele>
        <time>2014-09-16T18:09:52Z</time>
      </trkpt>
      <trkpt lat="47.17173" lon="5.95365">
        <ele>311.6</ele>
        <time>2014-09-16T18:09:57Z</time>
      </trkpt>
      <trkpt lat="47.17176" lon="5.95352">
        <ele>312.5</ele>
        <time>2014-09-16T18:10:00Z</time>
      </trkpt>
      <trkpt lat="47.17178" lon="5.95338">
        <ele>313.5</ele>
        <time>2014-09-16T18:10:05Z</time>
      </trkpt>
      <trkpt lat="47.1718" lon="5.95326">
        <ele>314.4</ele>
        <time>2014-09-16T18:10:09Z</time>
      </trkpt>
      <trkpt lat="47.17181" lon="5.95313">
        <ele>315.3</ele>
        <time>2014-09-16T18:10:13Z</time>
      </trkpt>
      <trkpt lat="47.17183" lon="5.95298">
        <ele>315.7</ele>
        <time>2014-09-16T18:10:17Z</time>
      </trkpt>
      <trkpt lat="47.17184" lon="5.95284">
        <ele>315.8</ele>
        <time>2014-09-16T18:10:21Z</time>
      </trkpt>
      <trkpt lat="47.17184" lon="5.95269">
        <ele>315.9</ele>
        <time>2014-09-16T18:10:25Z</time>
      </trkpt>
      <trkpt lat="47.17186" lon="5.95256">
        <ele>316</ele>
        <time>2014-09-16T18:10:29Z</time>
      </trkpt>
      <trkpt lat="47.17188" lon="5.95244">
        <ele>316.1</ele>
        <time>2014-09-16T18:10:33Z</time>
      </trkpt>
      <trkpt lat="47.17186" lon="5.9523">
        <ele>316.2</ele>
        <time>2014-09-16T18:10:37Z</time>
      </trkpt>
      <trkpt lat="47.17182" lon="5.95215">
        <ele>315.8</ele>
        <time>2014-09-16T18:10:41Z</time>
      </trkpt>
      <trkpt lat="47.17179" lon="5.95204">
        <ele>314.4</ele>
        <time>2014-09-16T18:10:43Z</time>
      </trkpt>
      <trkpt lat="47.17176" lon="5.9519">
        <ele>312.9</ele>
        <time>2014-09-16T18:10:45Z</time>
      </trkpt>
      <trkpt lat="47.17172" lon="5.95175">
        <ele>311.5</ele>
        <time>2014-09-16T18:10:47Z</time>
      </trkpt>
      <trkpt lat="47.17166" lon="5.95158">
        <ele>310</ele>
        <time>2014-09-16T18:10:50Z</time>
      </trkpt>
      <trkpt lat="47.17161" lon="5.95146">
        <ele>308.5</ele>
        <time>2014-09-16T18:10:54Z</time>
      </trkpt>
      <trkpt lat="47.17156" lon="5.95134">
        <ele>309.1</ele>
        <time>2014-09-16T18:10:57Z</time>
      </trkpt>
      <trkpt lat="47.17151" lon="5.95122">
        <ele>309.6</ele>
        <time>2014-09-16T18:11:02Z</time>
      </trkpt>
      <trkpt lat="47.17145" lon="5.9511">
        <ele>310.2</ele>
        <time>2014-09-16T18:11:05Z</time>
      </trkpt>
      <trkpt lat="47.17139" lon="5.951">
        <ele>309.4</ele>
        <time>2014-09-16T18:11:09Z</time>
      </trkpt>
      <trkpt lat="47.17133" lon="5.9509">
        <ele>308.5</ele>
        <time>2014-09-16T18:11:13Z</time>
      </trkpt>
      <trkpt lat="47.17127" lon="5.95081">
        <ele>307.7</ele>
        <time>2014-09-16T18:11:16Z</time>
      </trkpt>
      <trkpt lat="47.17121" lon="5.95068">
        <ele>308</ele>
        <time>2014-09-16T18:11:20Z</time>
      </trkpt>
      <trkpt lat="47.17113" lon="5.95059">
        <ele>308.3</ele>
        <time>2014-09-16T18:11:24Z</time>
      </trkpt>
      <trkpt lat="47.17106" lon="5.95052">
        <ele>308.5</ele>
        <time>2014-09-16T18:11:28Z</time>
      </trkpt>
      <trkpt lat="47.171" lon="5.95042">
        <ele>308.8</ele>
        <time>2014-09-16T18:11:31Z</time>
      </trkpt>
      <trkpt lat="47.17093" lon="5.95032">
        <ele>309.1</ele>
        <time>2014-09-16T18:11:35Z</time>
      </trkpt>
      <trkpt lat="47.17087" lon="5.95023">
        <ele>307.7</ele>
        <time>2014-09-16T18:11:39Z</time>
      </trkpt>
      <trkpt lat="47.17081" lon="5.95013">
        <ele>306.6</ele>
        <time>2014-09-16T18:11:43Z</time>
      </trkpt>
      <trkpt lat="47.17074" lon="5.95003">
        <ele>305.5</ele>
        <time>2014-09-16T18:11:47Z</time>
      </trkpt>
      <trkpt lat="47.17068" lon="5.94996">
        <ele>305.7</ele>
        <time>2014-09-16T18:11:52Z</time>
      </trkpt>
      <trkpt lat="47.1706" lon="5.94989">
        <ele>305.9</ele>
        <time>2014-09-16T18:11:55Z</time>
      </trkpt>
      <trkpt lat="47.17051" lon="5.94981">
        <ele>306.1</ele>
        <time>2014-09-16T18:11:59Z</time>
      </trkpt>
      <trkpt lat="47.17042" lon="5.94975">
        <ele>306.3</ele>
        <time>2014-09-16T18:12:03Z</time>
      </trkpt>
      <trkpt lat="47.17032" lon="5.94971">
        <ele>305.8</ele>
        <time>2014-09-16T18:12:07Z</time>
      </trkpt>
      <trkpt lat="47.17025" lon="5.94966">
        <ele>305.8</ele>
        <time>2014-09-16T18:12:11Z</time>
      </trkpt>
      <trkpt lat="47.17017" lon="5.9496">
        <ele>305.8</ele>
        <time>2014-09-16T18:12:15Z</time>
      </trkpt>
      <trkpt lat="47.17026" lon="5.94959">
        <ele>305.8</ele>
        <time>2014-09-16T18:12:22Z</time>
      </trkpt>
      <trkpt lat="47.17037" lon="5.94963">
        <ele>305.8</ele>
        <time>2014-09-16T18:12:25Z</time>
      </trkpt>
      <trkpt lat="47.17046" lon="5.94967">
        <ele>305.5</ele>
        <time>2014-09-16T18:12:28Z</time>
      </trkpt>
      <trkpt lat="47.17056" lon="5.94973">
        <ele>305.3</ele>
        <time>2014-09-16T18:12:32Z</time>
      </trkpt>
      <trkpt lat="47.17064" lon="5.9498">
        <ele>305.1</ele>
        <time>2014-09-16T18:12:36Z</time>
      </trkpt>
      <trkpt lat="47.17072" lon="5.94985">
        <ele>304.9</ele>
        <time>2014-09-16T18:12:40Z</time>
      </trkpt>
      <trkpt lat="47.17081" lon="5.94989">
        <ele>304.7</ele>
        <time>2014-09-16T18:12:44Z</time>
      </trkpt>
      <trkpt lat="47.17089" lon="5.94996">
        <ele>303</ele>
        <time>2014-09-16T18:12:49Z</time>
      </trkpt>
      <trkpt lat="47.17098" lon="5.95004">
        <ele>301.9</ele>
        <time>2014-09-16T18:12:52Z</time>
      </trkpt>
      <trkpt lat="47.17107" lon="5.95007">
        <ele>300.4</ele>
        <time>2014-09-16T18:12:57Z</time>
      </trkpt>
      <trkpt lat="47.17115" lon="5.95013">
        <ele>298.8</ele>
        <time>2014-09-16T18:13:00Z</time>
      </trkpt>
      <trkpt lat="47.17123" lon="5.95017">
        <ele>297.3</ele>
        <time>2014-09-16T18:13:03Z</time>
      </trkpt>
      <trkpt lat="47.17132" lon="5.95022">
        <ele>295.7</ele>
        <time>2014-09-16T18:13:07Z</time>
      </trkpt>
      <trkpt lat="47.17148" lon="5.95032">
        <ele>294.2</ele>
        <time>2014-09-16T18:13:15Z</time>
      </trkpt>
      <trkpt lat="47.17158" lon="5.95037">
        <ele>293.9</ele>
        <time>2014-09-16T18:13:18Z</time>
      </trkpt>
      <trkpt lat="47.17167" lon="5.95041">
        <ele>292.2</ele>
        <time>2014-09-16T18:13:23Z</time>
      </trkpt>
      <trkpt lat="47.17176" lon="5.95043">
        <ele>290.5</ele>
        <time>2014-09-16T18:13:25Z</time>
      </trkpt>
      <trkpt lat="47.17188" lon="5.95047">
        <ele>288.7</ele>
        <time>2014-09-16T18:13:31Z</time>
      </trkpt>
      <trkpt lat="47.17197" lon="5.9505">
        <ele>288.5</ele>
        <time>2014-09-16T18:13:34Z</time>
      </trkpt>
      <trkpt lat="47.17206" lon="5.95056">
        <ele>288.4</ele>
        <time>2014-09-16T18:13:38Z</time>
      </trkpt>
      <trkpt lat="47.17216" lon="5.95064">
        <ele>288.2</ele>
        <time>2014-09-16T18:13:43Z</time>
      </trkpt>
      <trkpt lat="47.17223" lon="5.95072">
        <ele>288</ele>
        <time>2014-09-16T18:13:45Z</time>
      </trkpt>
      <trkpt lat="47.17231" lon="5.95079">
        <ele>287.8</ele>
        <time>2014-09-16T18:13:50Z</time>
      </trkpt>
      <trkpt lat="47.17247" lon="5.9509">
        <ele>288</ele>
        <time>2014-09-16T18:13:58Z</time>
      </trkpt>
      <trkpt lat="47.17256" lon="5.95098">
        <ele>288.2</ele>
        <time>2014-09-16T18:14:02Z</time>
      </trkpt>
      <trkpt lat="47.17264" lon="5.95108">
        <ele>286.3</ele>
        <time>2014-09-16T18:14:05Z</time>
      </trkpt>
      <trkpt lat="47.17273" lon="5.95116">
        <ele>285.8</ele>
        <time>2014-09-16T18:14:08Z</time>
      </trkpt>
      <trkpt lat="47.17278" lon="5.95126">
        <ele>285.4</ele>
        <time>2014-09-16T18:14:11Z</time>
      </trkpt>
      <trkpt lat="47.17286" lon="5.95135">
        <ele>284.9</ele>
        <time>2014-09-16T18:14:16Z</time>
      </trkpt>
      <trkpt lat="47.17295" lon="5.95142">
        <ele>284.5</ele>
        <time>2014-09-16T18:14:19Z</time>
      </trkpt>
      <trkpt lat="47.17304" lon="5.9515">
        <ele>284</ele>
        <time>2014-09-16T18:14:23Z</time>
      </trkpt>
      <trkpt lat="47.17315" lon="5.95154">
        <ele>283.5</ele>
        <time>2014-09-16T18:14:29Z</time>
      </trkpt>
      <trkpt lat="47.17333" lon="5.95152">
        <ele>283.1</ele>
        <time>2014-09-16T18:14:35Z</time>
      </trkpt>
      <trkpt lat="47.17342" lon="5.95148">
        <ele>282.1</ele>
        <time>2014-09-16T18:14:38Z</time>
      </trkpt>
      <trkpt lat="47.1735" lon="5.95145">
        <ele>280.7</ele>
        <time>2014-09-16T18:14:41Z</time>
      </trkpt>
      <trkpt lat="47.17358" lon="5.95143">
        <ele>279.4</ele>
        <time>2014-09-16T18:14:44Z</time>
      </trkpt>
      <trkpt lat="47.17366" lon="5.9514">
        <ele>278.8</ele>
        <time>2014-09-16T18:14:46Z</time>
      </trkpt>
      <trkpt lat="47.17377" lon="5.95137">
        <ele>278.3</ele>
        <time>2014-09-16T18:14:50Z</time>
      </trkpt>
      <trkpt lat="47.17385" lon="5.95133">
        <ele>277.7</ele>
        <time>2014-09-16T18:14:53Z</time>
      </trkpt>
      <trkpt lat="47.17394" lon="5.9513">
        <ele>277.2</ele>
        <time>2014-09-16T18:14:57Z</time>
      </trkpt>
      <trkpt lat="47.17404" lon="5.95128">
        <ele>276.6</ele>
        <time>2014-09-16T18:15:02Z</time>
      </trkpt>
      <trkpt lat="47.17414" lon="5.95129">
        <ele>276.6</ele>
        <time>2014-09-16T18:15:05Z</time>
      </trkpt>
      <trkpt lat="47.17422" lon="5.9513">
        <ele>276.4</ele>
        <time>2014-09-16T18:15:09Z</time>
      </trkpt>
      <trkpt lat="47.17433" lon="5.95129">
        <ele>276.1</ele>
        <time>2014-09-16T18:15:13Z</time>
      </trkpt>
      <trkpt lat="47.17442" lon="5.95129">
        <ele>276.4</ele>
        <time>2014-09-16T18:15:16Z</time>
      </trkpt>
      <trkpt lat="47.1745" lon="5.95131">
        <ele>276.6</ele>
        <time>2014-09-16T18:15:20Z</time>
      </trkpt>
      <trkpt lat="47.17458" lon="5.95136">
        <ele>276.9</ele>
        <time>2014-09-16T18:15:23Z</time>
      </trkpt>
      <trkpt lat="47.17467" lon="5.95139">
        <ele>277.2</ele>
        <time>2014-09-16T18:15:27Z</time>
      </trkpt>
      <trkpt lat="47.17477" lon="5.95142">
        <ele>277.5</ele>
        <time>2014-09-16T18:15:32Z</time>
      </trkpt>
      <trkpt lat="47.17487" lon="5.95145">
        <ele>277.7</ele>
        <time>2014-09-16T18:15:37Z</time>
      </trkpt>
      <trkpt lat="47.17495" lon="5.95143">
        <ele>278</ele>
        <time>2014-09-16T18:15:39Z</time>
      </trkpt>
      <trkpt lat="47.17503" lon="5.95141">
        <ele>278.3</ele>
        <time>2014-09-16T18:15:42Z</time>
      </trkpt>
      <trkpt lat="47.17512" lon="5.9514">
        <ele>278</ele>
        <time>2014-09-16T18:15:45Z</time>
      </trkpt>
      <trkpt lat="47.17521" lon="5.9514">
        <ele>278</ele>
        <time>2014-09-16T18:15:49Z</time>
      </trkpt>
      <trkpt lat="47.17529" lon="5.95142">
        <ele>278</ele>
        <time>2014-09-16T18:15:53Z</time>
      </trkpt>
      <trkpt lat="47.17537" lon="5.95149">
        <ele>278</ele>
        <time>2014-09-16T18:15:57Z</time>
      </trkpt>
      <trkpt lat="47.17542" lon="5.95161">
        <ele>278</ele>
        <time>2014-09-16T18:16:02Z</time>
      </trkpt>
      <trkpt lat="47.17533" lon="5.95166">
        <ele>278</ele>
        <time>2014-09-16T18:16:09Z</time>
      </trkpt>
      <trkpt lat="47.17524" lon="5.95161">
        <ele>278</ele>
        <time>2014-09-16T18:16:22Z</time>
      </trkpt>
    </trkseg>
  </trk>
</gpx>